Observation data for Amarillo 9 North Northeast on 12/13/2019      Previous  Date       Current Mesonet Observations  Soil Data  Daily Summary Page  Observations in Plain Language
KAM2 130600Z 18005KT M02/M04 A2998 RMK A01 T10151039  RH  084%=      5-min Rain = 0
KAM2 130601Z 18004KT M02/M04 A2998 RMK A01 T10151039  RH  083%=      5-min Rain = 0
KAM2 130602Z 18004KT M02/M04 A2998 RMK A01 T10151040  RH  083%=      5-min Rain = 0
KAM2 130603Z 18004KT M02/M04 A2998 RMK A01 T10161041  RH  083%=      5-min Rain = 0
KAM2 130604Z 18004KT M02/M04 A2998 RMK A01 T10161040  RH  084%=      5-min Rain = 0
KAM2 130605Z 17004KT M02/M04 A2998 RMK A01 T10161040  RH  084%=      5-min Rain = 0
KAM2 130606Z 17004KT M02/M04 A2998 RMK A01 T10161040  RH  084%=      5-min Rain = 0
KAM2 130607Z 17003KT M02/M04 A2998 RMK A01 T10171041  RH  084%=      5-min Rain = 0
KAM2 130608Z 17003KT M02/M04 A2998 RMK A01 T10171040  RH  084%=      5-min Rain = 0
KAM2 130609Z 17003KT M02/M04 A2998 RMK A01 T10161040  RH  084%=      5-min Rain = 0
KAM2 130610Z 17002KT M02/M04 A2998 RMK A01 T10151039  RH  084%=      5-min Rain = 0
KAM2 130611Z 17002KT M01/M04 A2998 RMK A01 T10141039  RH  083%=      5-min Rain = 0
KAM2 130612Z 18002KT M01/M04 A2998 RMK A01 T10141039  RH  083%=      5-min Rain = 0
KAM2 130613Z 18002KT M01/M04 A2998 RMK A01 T10131040  RH  082%=      5-min Rain = 0
KAM2 130614Z 18003KT M01/M04 A2998 RMK A01 T10141040  RH  082%=      5-min Rain = 0
KAM2 130615Z 19003KT M01/M04 A2998 RMK A01 T10131040  RH  082%=      5-min Rain = 0
KAM2 130616Z 19002KT M01/M04 A2998 RMK A01 T10131040  RH  082%=      5-min Rain = 0
KAM2 130617Z 20001KT M02/M04 A2998 RMK A01 T10151043  RH  081%=      5-min Rain = 0
KAM2 130618Z 00000KT M02/M05 A2998 RMK A01 T10191047  RH  081%=      5-min Rain = 0
KAM2 130619Z 18000KT M02/M05 A2998 RMK A01 T10211047  RH  083%=      5-min Rain = 0
KAM2 130620Z 18001KT M02/M04 A2998 RMK A01 T10221044  RH  085%=      5-min Rain = 0
KAM2 130621Z 17002KT M02/M04 A2998 RMK A01 T10221042  RH  086%=      5-min Rain = 0
KAM2 130622Z 17001KT M02/M04 A2998 RMK A01 T10211041  RH  086%=      5-min Rain = 0
KAM2 130623Z 17001KT M02/M04 A2998 RMK A01 T10211040  RH  086%=      5-min Rain = 0
KAM2 130624Z 17002KT M02/M04 A2998 RMK A01 T10211041  RH  086%=      5-min Rain = 0
KAM2 130625Z 17002KT M02/M04 A2998 RMK A01 T10211041  RH  086%=      5-min Rain = 0
KAM2 130626Z 17001KT M02/M04 A2998 RMK A01 T10201040  RH  086%=      5-min Rain = 0
KAM2 130627Z 00000KT M02/M04 A2998 RMK A01 T10201042  RH  086%=      5-min Rain = 0
KAM2 130628Z 16000KT M02/M04 A2998 RMK A01 T10211041  RH  086%=      5-min Rain = 0
KAM2 130629Z 16000KT M02/M04 A2998 RMK A01 T10211041  RH  086%=      5-min Rain = 0
KAM2 130630Z 00000KT M02/M04 A2998 RMK A01 T10201041  RH  086%=      5-min Rain = 0
KAM2 130631Z 00000KT M02/M04 A2998 RMK A01 T10221044  RH  085%=      5-min Rain = 0
KAM2 130632Z 02001KT M02/M04 A2998 RMK A01 T10231044  RH  086%=      5-min Rain = 0
KAM2 130633Z 02001KT M03/M05 A2998 RMK A01 T10251045  RH  086%=      5-min Rain = 0
KAM2 130634Z 02001KT M03/M05 A2998 RMK A01 T10261045  RH  086%=      5-min Rain = 0
KAM2 130635Z 02001KT M03/M05 A2998 RMK A01 T10271046  RH  087%=      5-min Rain = 0
KAM2 130636Z 02001KT M03/M05 A2998 RMK A01 T10281046  RH  087%=      5-min Rain = 0
KAM2 130637Z 00001KT M03/M05 A2998 RMK A01 T10291047  RH  087%=      5-min Rain = 0
KAM2 130638Z 36001KT M03/M05 A2998 RMK A01 T10301048  RH  088%=      5-min Rain = 0
KAM2 130639Z 00001KT M03/M05 A2998 RMK A01 T10301046  RH  089%=      5-min Rain = 0
KAM2 130640Z 00001KT M03/M05 A2998 RMK A01 T10291045  RH  089%=      5-min Rain = 0
KAM2 130641Z 00001KT M03/M04 A2998 RMK A01 T10291044  RH  089%=      5-min Rain = 0
KAM2 130642Z 00001KT M03/M04 A2998 RMK A01 T10281043  RH  089%=      5-min Rain = 0
KAM2 130643Z 00002KT M03/M04 A2998 RMK A01 T10261042  RH  089%=      5-min Rain = 0
KAM2 130644Z 01002KT M03/M04 A2998 RMK A01 T10261043  RH  088%=      5-min Rain = 0
KAM2 130645Z 01002KT M03/M04 A2998 RMK A01 T10261043  RH  088%=      5-min Rain = 0
KAM2 130646Z 02002KT M03/M04 A2998 RMK A01 T10261044  RH  088%=      5-min Rain = 0
KAM2 130647Z 02001KT M03/M04 A2998 RMK A01 T10261044  RH  088%=      5-min Rain = 0
KAM2 130648Z 02001KT M03/M04 A2998 RMK A01 T10261044  RH  088%=      5-min Rain = 0
KAM2 130649Z 02001KT M03/M04 A2998 RMK A01 T10261044  RH  088%=      5-min Rain = 0
KAM2 130650Z 02001KT M03/M04 A2998 RMK A01 T10251042  RH  088%=      5-min Rain = 0
KAM2 130651Z 01001KT M03/M04 A2998 RMK A01 T10251042  RH  088%=      5-min Rain = 0
KAM2 130652Z 01001KT M02/M04 A2998 RMK A01 T10241041  RH  088%=      5-min Rain = 0
KAM2 130653Z 01001KT M02/M04 A2998 RMK A01 T10241041  RH  088%=      5-min Rain = 0
KAM2 130654Z 02000KT M02/M04 A2997 RMK A01 T10241041  RH  088%=      5-min Rain = 0
KAM2 130655Z 03000KT M02/M04 A2997 RMK A01 T10241042  RH  087%=      5-min Rain = 0
KAM2 130656Z 03000KT M02/M04 A2997 RMK A01 T10231042  RH  087%=      5-min Rain = 0
KAM2 130657Z 00000KT M02/M04 A2997 RMK A01 T10241042  RH  088%=      5-min Rain = 0
KAM2 130658Z 00000KT M02/M04 A2997 RMK A01 T10231041  RH  087%=      5-min Rain = 0
KAM2 130659Z 00000KT M02/M05 A2997 RMK A01 T10241045  RH  085%=      5-min Rain = 0
KAM2 130700Z 06000KT M03/M05 A2997 RMK A01 T10251048  RH  084%=      5-min Rain = 0
KAM2 130701Z 06001KT M03/M05 A2997 RMK A01 T10271049  RH  085%=      5-min Rain = 0
KAM2 130702Z 06000KT M03/M05 A2997 RMK A01 T10291049  RH  086%=      5-min Rain = 0
KAM2 130703Z 00000KT M03/M05 A2997 RMK A01 T10301050  RH  086%=      5-min Rain = 0
KAM2 130704Z 00000KT M03/M05 A2997 RMK A01 T10311050  RH  087%=      5-min Rain = 0
KAM2 130705Z 00000KT M03/M05 A2997 RMK A01 T10311049  RH  088%=      5-min Rain = 0
KAM2 130706Z 00000KT M03/M05 A2997 RMK A01 T10311047  RH  089%=      5-min Rain = 0
KAM2 130707Z 00000KT M03/M05 A2997 RMK A01 T10311046  RH  089%=      5-min Rain = 0
KAM2 130708Z 00000KT M03/M04 A2997 RMK A01 T10301044  RH  090%=      5-min Rain = 0
KAM2 130709Z 00000KT M03/M04 A2997 RMK A01 T10291043  RH  090%=      5-min Rain = 0
KAM2 130710Z 00000KT M03/M04 A2997 RMK A01 T10281042  RH  090%=      5-min Rain = 0
KAM2 130711Z 00000KT M03/M04 A2997 RMK A01 T10281042  RH  090%=      5-min Rain = 0
KAM2 130712Z 00000KT M03/M04 A2997 RMK A01 T10271043  RH  089%=      5-min Rain = 0
KAM2 130713Z 00000KT M03/M04 A2997 RMK A01 T10271044  RH  088%=      5-min Rain = 0
KAM2 130714Z 00000KT M03/M05 A2996 RMK A01 T10281045  RH  088%=      5-min Rain = 0
KAM2 130715Z 17000KT M03/M04 A2996 RMK A01 T10271044  RH  088%=      5-min Rain = 0
KAM2 130716Z 18001KT M03/M04 A2996 RMK A01 T10281044  RH  088%=      5-min Rain = 0
KAM2 130717Z 18000KT M03/M05 A2996 RMK A01 T10281047  RH  087%=      5-min Rain = 0
KAM2 130718Z 18000KT M03/M05 A2996 RMK A01 T10301048  RH  087%=      5-min Rain = 0
KAM2 130719Z 00000KT M03/M05 A2996 RMK A01 T10301049  RH  087%=      5-min Rain = 0
KAM2 130720Z 00000KT M03/M05 A2996 RMK A01 T10311048  RH  088%=      5-min Rain = 0
KAM2 130721Z 00000KT M03/M05 A2996 RMK A01 T10311047  RH  089%=      5-min Rain = 0
KAM2 130722Z 00000KT M03/M05 A2996 RMK A01 T10311045  RH  089%=      5-min Rain = 0
KAM2 130723Z 00000KT M03/M05 A2996 RMK A01 T10301045  RH  089%=      5-min Rain = 0
KAM2 130724Z 00000KT M03/M05 A2996 RMK A01 T10311046  RH  089%=      5-min Rain = 0
KAM2 130725Z 00000KT M03/M05 A2996 RMK A01 T10311047  RH  089%=      5-min Rain = 0
KAM2 130726Z 00000KT M03/M05 A2996 RMK A01 T10321049  RH  088%=      5-min Rain = 0
KAM2 130727Z 00000KT M03/M05 A2996 RMK A01 T10331051  RH  088%=      5-min Rain = 0
KAM2 130728Z 00000KT M03/M05 A2996 RMK A01 T10341053  RH  087%=      5-min Rain = 0
KAM2 130729Z 00000KT M04/M05 A2996 RMK A01 T10351052  RH  088%=      5-min Rain = 0
KAM2 130730Z 00000KT M04/M05 A2996 RMK A01 T10351051  RH  088%=      5-min Rain = 0
KAM2 130731Z 00000KT M04/M05 A2996 RMK A01 T10351051  RH  089%=      5-min Rain = 0
KAM2 130732Z 00000KT M04/M05 A2996 RMK A01 T10351050  RH  089%=      5-min Rain = 0
KAM2 130733Z 00000KT M04/M05 A2996 RMK A01 T10351050  RH  090%=      5-min Rain = 0
KAM2 130734Z 00000KT M04/M05 A2996 RMK A01 T10351049  RH  090%=      5-min Rain = 0
KAM2 130735Z 00000KT M04/M05 A2996 RMK A01 T10351049  RH  090%=      5-min Rain = 0
KAM2 130736Z 00000KT M04/M05 A2996 RMK A01 T10351049  RH  091%=      5-min Rain = 0
KAM2 130737Z 00000KT M04/M05 A2996 RMK A01 T10351049  RH  091%=      5-min Rain = 0
KAM2 130738Z 00000KT M04/M05 A2996 RMK A01 T10351049  RH  090%=      5-min Rain = 0
KAM2 130739Z 00000KT M04/M05 A2996 RMK A01 T10361050  RH  090%=      5-min Rain = 0
KAM2 130740Z 00000KT M04/M05 A2996 RMK A01 T10361051  RH  089%=      5-min Rain = 0
KAM2 130741Z 00000KT M04/M05 A2996 RMK A01 T10361051  RH  090%=      5-min Rain = 0
KAM2 130742Z 00000KT M04/M05 A2996 RMK A01 T10361050  RH  090%=      5-min Rain = 0
KAM2 130743Z 00000KT M04/M05 A2996 RMK A01 T10371051  RH  090%=      5-min Rain = 0
KAM2 130744Z 16000KT M04/M05 A2996 RMK A01 T10371051  RH  090%=      5-min Rain = 0
KAM2 130745Z 16001KT M04/M05 A2996 RMK A01 T10371051  RH  090%=      5-min Rain = 0
KAM2 130746Z 16001KT M04/M05 A2996 RMK A01 T10371051  RH  090%=      5-min Rain = 0
KAM2 130747Z 16001KT M04/M05 A2996 RMK A01 T10381052  RH  090%=      5-min Rain = 0
KAM2 130748Z 17001KT M04/M05 A2996 RMK A01 T10381051  RH  091%=      5-min Rain = 0
KAM2 130749Z 17001KT M04/M05 A2996 RMK A01 T10381051  RH  091%=      5-min Rain = 0
KAM2 130750Z 17002KT M04/M05 A2996 RMK A01 T10381051  RH  091%=      5-min Rain = 0
KAM2 130751Z 17002KT M04/M05 A2995 RMK A01 T10381052  RH  091%=      5-min Rain = 0
KAM2 130752Z 17002KT M04/M05 A2995 RMK A01 T10391053  RH  090%=      5-min Rain = 0
KAM2 130753Z 17002KT M04/M05 A2995 RMK A01 T10401053  RH  090%=      5-min Rain = 0
KAM2 130754Z 17002KT M04/M05 A2995 RMK A01 T10401054  RH  090%=      5-min Rain = 0
KAM2 130755Z 17002KT M04/M06 A2995 RMK A01 T10411055  RH  090%=      5-min Rain = 0
KAM2 130756Z 18002KT M04/M06 A2995 RMK A01 T10411055  RH  090%=      5-min Rain = 0
KAM2 130757Z 18002KT M04/M06 A2995 RMK A01 T10411055  RH  090%=      5-min Rain = 0
KAM2 130758Z 18003KT M04/M05 A2995 RMK A01 T10411054  RH  091%=      5-min Rain = 0
KAM2 130759Z 18002KT M04/M05 A2995 RMK A01 T10411054  RH  091%=      5-min Rain = 0
KAM2 130800Z 18002KT M04/M05 A2995 RMK A01 T10421054  RH  091%=      5-min Rain = 0
KAM2 130801Z 19002KT M04/M06 A2995 RMK A01 T10421055  RH  091%=      5-min Rain = 0
KAM2 130802Z 18002KT M04/M06 A2995 RMK A01 T10431055  RH  091%=      5-min Rain = 0
KAM2 130803Z 18002KT M04/M06 A2996 RMK A01 T10431056  RH  091%=      5-min Rain = 0
KAM2 130804Z 18002KT M04/M06 A2996 RMK A01 T10431056  RH  091%=      5-min Rain = 0
KAM2 130805Z 18003KT M04/M06 A2996 RMK A01 T10431055  RH  092%=      5-min Rain = 0
KAM2 130806Z 19003KT M04/M05 A2996 RMK A01 T10431054  RH  092%=      5-min Rain = 0
KAM2 130807Z 18002KT M04/M05 A2996 RMK A01 T10431054  RH  092%=      5-min Rain = 0
KAM2 130808Z 18002KT M04/M05 A2996 RMK A01 T10421053  RH  092%=      5-min Rain = 0
KAM2 130809Z 18002KT M04/M05 A2996 RMK A01 T10411052  RH  093%=      5-min Rain = 0
KAM2 130810Z 17002KT M04/M05 A2996 RMK A01 T10401050  RH  093%=      5-min Rain = 0
KAM2 130811Z 17002KT M04/M05 A2996 RMK A01 T10391049  RH  093%=      5-min Rain = 0
KAM2 130812Z 17002KT M04/M05 A2996 RMK A01 T10381049  RH  092%=      5-min Rain = 0
KAM2 130813Z 17002KT M04/M05 A2996 RMK A01 T10381049  RH  092%=      5-min Rain = 0
KAM2 130814Z 17002KT M04/M05 A2996 RMK A01 T10381050  RH  092%=      5-min Rain = 0
KAM2 130815Z 18002KT M04/M05 A2996 RMK A01 T10381051  RH  091%=      5-min Rain = 0
KAM2 130816Z 18001KT M04/M05 A2996 RMK A01 T10391052  RH  091%=      5-min Rain = 0
KAM2 130817Z 17001KT M04/M05 A2996 RMK A01 T10401053  RH  091%=      5-min Rain = 0
KAM2 130818Z 18002KT M04/M05 A2996 RMK A01 T10401053  RH  091%=      5-min Rain = 0
KAM2 130819Z 18002KT M04/M05 A2996 RMK A01 T10401053  RH  091%=      5-min Rain = 0
KAM2 130820Z 18002KT M04/M05 A2996 RMK A01 T10411054  RH  091%=      5-min Rain = 0
KAM2 130821Z 18002KT M04/M05 A2996 RMK A01 T10411054  RH  091%=      5-min Rain = 0
KAM2 130822Z 17003KT M04/M05 A2996 RMK A01 T10411053  RH  091%=      5-min Rain = 0
KAM2 130823Z 17003KT M04/M05 A2996 RMK A01 T10401052  RH  091%=      5-min Rain = 0
KAM2 130824Z 17003KT M04/M05 A2996 RMK A01 T10401052  RH  091%=      5-min Rain = 0
KAM2 130825Z 17004KT M04/M05 A2996 RMK A01 T10391052  RH  091%=      5-min Rain = 0
KAM2 130826Z 17004KT M04/M05 A2996 RMK A01 T10391052  RH  091%=      5-min Rain = 0
KAM2 130827Z 17004KT M04/M05 A2995 RMK A01 T10401053  RH  091%=      5-min Rain = 0
KAM2 130828Z 17004KT M04/M05 A2995 RMK A01 T10401053  RH  090%=      5-min Rain = 0
KAM2 130829Z 17003KT M04/M06 A2995 RMK A01 T10411055  RH  090%=      5-min Rain = 0
KAM2 130830Z 18003KT M04/M06 A2995 RMK A01 T10421056  RH  090%=      5-min Rain = 0
KAM2 130831Z 17003KT M04/M06 A2995 RMK A01 T10431057  RH  090%=      5-min Rain = 0
KAM2 130832Z 17003KT M04/M06 A2995 RMK A01 T10441057  RH  090%=      5-min Rain = 0
KAM2 130833Z 17003KT M04/M06 A2995 RMK A01 T10441057  RH  091%=      5-min Rain = 0
KAM2 130834Z 17002KT M04/M06 A2995 RMK A01 T10441056  RH  091%=      5-min Rain = 0
KAM2 130835Z 17002KT M04/M06 A2995 RMK A01 T10441055  RH  092%=      5-min Rain = 0
KAM2 130836Z 17002KT M04/M05 A2995 RMK A01 T10431054  RH  092%=      5-min Rain = 0
KAM2 130837Z 17002KT M04/M05 A2995 RMK A01 T10421053  RH  092%=      5-min Rain = 0
KAM2 130838Z 17002KT M04/M05 A2995 RMK A01 T10411053  RH  092%=      5-min Rain = 0
KAM2 130839Z 18002KT M04/M05 A2995 RMK A01 T10411053  RH  091%=      5-min Rain = 0
KAM2 130840Z 18002KT M04/M05 A2995 RMK A01 T10401052  RH  091%=      5-min Rain = 0
KAM2 130841Z 19002KT M04/M05 A2995 RMK A01 T10401053  RH  091%=      5-min Rain = 0
KAM2 130842Z 19003KT M04/M05 A2995 RMK A01 T10401052  RH  091%=      5-min Rain = 0
KAM2 130843Z 19003KT M04/M05 A2995 RMK A01 T10401052  RH  091%=      5-min Rain = 0
KAM2 130844Z 19004KT M04/M05 A2995 RMK A01 T10391051  RH  091%=      5-min Rain = 0
KAM2 130845Z 19004KT M04/M05 A2995 RMK A01 T10391051  RH  091%=      5-min Rain = 0
KAM2 130846Z 18004KT M04/M05 A2995 RMK A01 T10381051  RH  091%=      5-min Rain = 0
KAM2 130847Z 19004KT M04/M05 A2995 RMK A01 T10381051  RH  091%=      5-min Rain = 0
KAM2 130848Z 19004KT M04/M05 A2995 RMK A01 T10381051  RH  090%=      5-min Rain = 0
KAM2 130849Z 19004KT M04/M05 A2995 RMK A01 T10381051  RH  091%=      5-min Rain = 0
KAM2 130850Z 20004KT M04/M05 A2995 RMK A01 T10381051  RH  091%=      5-min Rain = 0
KAM2 130851Z 20004KT M04/M05 A2995 RMK A01 T10381051  RH  090%=      5-min Rain = 0
KAM2 130852Z 20005KT M04/M05 A2995 RMK A01 T10381052  RH  090%=      5-min Rain = 0
KAM2 130853Z 20005KT M04/M05 A2995 RMK A01 T10391053  RH  090%=      5-min Rain = 0
KAM2 130854Z 20005KT M04/M05 A2995 RMK A01 T10391053  RH  090%=      5-min Rain = 0
KAM2 130855Z 20004KT M04/M05 A2995 RMK A01 T10401053  RH  090%=      5-min Rain = 0
KAM2 130856Z 20005KT M04/M05 A2995 RMK A01 T10411054  RH  090%=      5-min Rain = 0
KAM2 130857Z 20005KT M04/M05 A2994 RMK A01 T10411054  RH  091%=      5-min Rain = 0
KAM2 130858Z 20005KT M04/M05 A2994 RMK A01 T10411054  RH  091%=      5-min Rain = 0
KAM2 130859Z 21005KT M04/M05 A2994 RMK A01 T10421054  RH  091%=      5-min Rain = 0
KAM2 130900Z 21005KT M04/M05 A2994 RMK A01 T10421054  RH  091%=      5-min Rain = 0
KAM2 130901Z 20005KT M04/M05 A2994 RMK A01 T10421053  RH  092%=      5-min Rain = 0
KAM2 130902Z 20005KT M04/M05 A2994 RMK A01 T10401051  RH  092%=      5-min Rain = 0
KAM2 130903Z 20004KT M04/M05 A2994 RMK A01 T10391049  RH  092%=      5-min Rain = 0
KAM2 130904Z 20004KT M04/M05 A2994 RMK A01 T10371049  RH  092%=      5-min Rain = 0
KAM2 130905Z 20003KT M04/M05 A2994 RMK A01 T10371049  RH  091%=      5-min Rain = 0
KAM2 130906Z 19003KT M04/M05 A2994 RMK A01 T10381051  RH  091%=      5-min Rain = 0
KAM2 130907Z 19002KT M04/M05 A2994 RMK A01 T10381052  RH  090%=      5-min Rain = 0
KAM2 130908Z 19003KT M04/M05 A2994 RMK A01 T10381051  RH  091%=      5-min Rain = 0
KAM2 130909Z 19002KT M04/M05 A2994 RMK A01 T10381051  RH  091%=      5-min Rain = 0
KAM2 130910Z 20002KT M04/M05 A2994 RMK A01 T10381050  RH  091%=      5-min Rain = 0
KAM2 130911Z 19002KT M04/M05 A2994 RMK A01 T10371049  RH  092%=      5-min Rain = 0
KAM2 130912Z 18001KT M04/M05 A2994 RMK A01 T10361048  RH  092%=      5-min Rain = 0
KAM2 130913Z 18001KT M04/M05 A2995 RMK A01 T10361048  RH  091%=      5-min Rain = 0
KAM2 130914Z 18000KT M04/M05 A2995 RMK A01 T10361049  RH  091%=      5-min Rain = 0
KAM2 130915Z 00000KT M04/M05 A2995 RMK A01 T10351048  RH  091%=      5-min Rain = 0
KAM2 130916Z 00000KT M04/M05 A2994 RMK A01 T10351048  RH  091%=      5-min Rain = 0
KAM2 130917Z 19001KT M03/M05 A2994 RMK A01 T10341048  RH  090%=      5-min Rain = 0
KAM2 130918Z 18001KT M03/M05 A2994 RMK A01 T10341048  RH  090%=      5-min Rain = 0
KAM2 130919Z 17001KT M03/M05 A2994 RMK A01 T10341048  RH  090%=      5-min Rain = 0
KAM2 130920Z 17002KT M03/M05 A2994 RMK A01 T10341050  RH  089%=      5-min Rain = 0
KAM2 130921Z 17001KT M04/M05 A2994 RMK A01 T10361052  RH  089%=      5-min Rain = 0
KAM2 130922Z 16002KT M04/M05 A2994 RMK A01 T10371053  RH  089%=      5-min Rain = 0
KAM2 130923Z 15002KT M04/M05 A2994 RMK A01 T10381054  RH  089%=      5-min Rain = 0
KAM2 130924Z 15002KT M04/M05 A2994 RMK A01 T10391054  RH  090%=      5-min Rain = 0
KAM2 130925Z 15003KT M04/M06 A2994 RMK A01 T10411055  RH  090%=      5-min Rain = 0
KAM2 130926Z 15003KT M04/M06 A2994 RMK A01 T10421056  RH  090%=      5-min Rain = 0
KAM2 130927Z 15004KT M04/M06 A2994 RMK A01 T10441057  RH  090%=      5-min Rain = 0
KAM2 130928Z 17004KT M04/M06 A2994 RMK A01 T10441057  RH  091%=      5-min Rain = 0
KAM2 130929Z 17004KT M04/M06 A2994 RMK A01 T10441056  RH  091%=      5-min Rain = 0
KAM2 130930Z 17004KT M04/M06 A2994 RMK A01 T10441055  RH  092%=      5-min Rain = 0
KAM2 130931Z 16004KT M04/M06 A2994 RMK A01 T10441056  RH  092%=      5-min Rain = 0
KAM2 130932Z 16003KT M04/M06 A2994 RMK A01 T10441056  RH  091%=      5-min Rain = 0
KAM2 130933Z 17003KT M05/M06 A2994 RMK A01 T10451056  RH  092%=      5-min Rain = 0
KAM2 130934Z 16003KT M05/M06 A2994 RMK A01 T10451056  RH  092%=      5-min Rain = 0
KAM2 130935Z 16003KT M05/M06 A2994 RMK A01 T10451057  RH  092%=      5-min Rain = 0
KAM2 130936Z 16003KT M05/M06 A2994 RMK A01 T10451057  RH  092%=      5-min Rain = 0
KAM2 130937Z 16003KT M05/M06 A2994 RMK A01 T10451057  RH  091%=      5-min Rain = 0
KAM2 130938Z 17003KT M05/M06 A2994 RMK A01 T10461058  RH  091%=      5-min Rain = 0
KAM2 130939Z 17003KT M05/M06 A2994 RMK A01 T10461058  RH  091%=      5-min Rain = 0
KAM2 130940Z 17003KT M05/M06 A2994 RMK A01 T10461058  RH  092%=      5-min Rain = 0
KAM2 130941Z 16002KT M05/M06 A2994 RMK A01 T10461057  RH  092%=      5-min Rain = 0
KAM2 130942Z 16002KT M05/M06 A2994 RMK A01 T10451056  RH  092%=      5-min Rain = 0
KAM2 130943Z 16002KT M04/M06 A2994 RMK A01 T10441056  RH  092%=      5-min Rain = 0
KAM2 130944Z 16002KT M04/M06 A2994 RMK A01 T10441056  RH  091%=      5-min Rain = 0
KAM2 130945Z 17003KT M05/M06 A2994 RMK A01 T10451057  RH  091%=      5-min Rain = 0
KAM2 130946Z 17003KT M05/M06 A2994 RMK A01 T10461058  RH  091%=      5-min Rain = 0
KAM2 130947Z 18003KT M05/M06 A2994 RMK A01 T10461059  RH  091%=      5-min Rain = 0
KAM2 130948Z 19002KT M05/M06 A2994 RMK A01 T10461058  RH  092%=      5-min Rain = 0
KAM2 130949Z 18003KT M05/M06 A2994 RMK A01 T10461057  RH  092%=      5-min Rain = 0
KAM2 130950Z 18003KT M05/M06 A2994 RMK A01 T10451056  RH  092%=      5-min Rain = 0
KAM2 130951Z 18003KT M04/M06 A2994 RMK A01 T10441055  RH  092%=      5-min Rain = 0
KAM2 130952Z 18003KT M04/M06 A2994 RMK A01 T10441056  RH  092%=      5-min Rain = 0
KAM2 130953Z 18003KT M04/M06 A2994 RMK A01 T10441056  RH  091%=      5-min Rain = 0
KAM2 130954Z 18004KT M04/M06 A2994 RMK A01 T10431056  RH  091%=      5-min Rain = 0
KAM2 130955Z 18004KT M04/M06 A2994 RMK A01 T10431055  RH  091%=      5-min Rain = 0
KAM2 130956Z 19004KT M04/M06 A2994 RMK A01 T10431055  RH  091%=      5-min Rain = 0
KAM2 130957Z 19005KT M04/M06 A2994 RMK A01 T10431056  RH  091%=      5-min Rain = 0
KAM2 130958Z 19004KT M04/M06 A2994 RMK A01 T10441057  RH  091%=      5-min Rain = 0
KAM2 130959Z 20004KT M05/M06 A2994 RMK A01 T10451058  RH  090%=      5-min Rain = 0
KAM2 131000Z 19004KT M05/M06 A2994 RMK A01 T10461059  RH  090%=      5-min Rain = 0
KAM2 131001Z 19004KT M05/M06 A2994 RMK A01 T10471060  RH  091%=      5-min Rain = 0
KAM2 131002Z 19004KT M05/M06 A2994 RMK A01 T10481060  RH  091%=      5-min Rain = 0
KAM2 131003Z 19004KT M05/M06 A2994 RMK A01 T10481060  RH  091%=      5-min Rain = 0
KAM2 131004Z 19004KT M05/M06 A2994 RMK A01 T10481059  RH  092%=      5-min Rain = 0
KAM2 131005Z 20004KT M05/M06 A2994 RMK A01 T10481059  RH  092%=      5-min Rain = 0
KAM2 131006Z 19003KT M05/M06 A2994 RMK A01 T10491060  RH  092%=      5-min Rain = 0
KAM2 131007Z 19003KT M05/M06 A2994 RMK A01 T10491059  RH  092%=      5-min Rain = 0
KAM2 131008Z 18003KT M05/M06 A2994 RMK A01 T10491059  RH  093%=      5-min Rain = 0
KAM2 131009Z 18003KT M05/M06 A2994 RMK A01 T10481058  RH  093%=      5-min Rain = 0
KAM2 131010Z 18003KT M05/M06 A2994 RMK A01 T10481058  RH  093%=      5-min Rain = 0
KAM2 131011Z 18003KT M05/M06 A2994 RMK A01 T10481058  RH  093%=      5-min Rain = 0
KAM2 131012Z 19003KT M05/M06 A2994 RMK A01 T10471057  RH  093%=      5-min Rain = 0
KAM2 131013Z 20002KT M05/M06 A2994 RMK A01 T10471056  RH  093%=      5-min Rain = 0
KAM2 131014Z 19003KT M05/M06 A2994 RMK A01 T10471056  RH  093%=      5-min Rain = 0
KAM2 131015Z 19003KT M05/M06 A2994 RMK A01 T10461056  RH  093%=      5-min Rain = 0
KAM2 131016Z 19003KT M05/M06 A2994 RMK A01 T10461057  RH  092%=      5-min Rain = 0
KAM2 131017Z 18002KT M05/M06 A2993 RMK A01 T10471057  RH  092%=      5-min Rain = 0
KAM2 131018Z 18002KT M05/M06 A2993 RMK A01 T10471057  RH  092%=      5-min Rain = 0
KAM2 131019Z 18003KT M05/M06 A2993 RMK A01 T10471058  RH  092%=      5-min Rain = 0
KAM2 131020Z 18003KT M05/M06 A2993 RMK A01 T10471057  RH  092%=      5-min Rain = 0
KAM2 131021Z 18002KT M05/M06 A2993 RMK A01 T10471058  RH  092%=      5-min Rain = 0
KAM2 131022Z 18003KT M05/M06 A2993 RMK A01 T10471058  RH  093%=      5-min Rain = 0
KAM2 131023Z 18003KT M05/M06 A2993 RMK A01 T10471058  RH  093%=      5-min Rain = 0
KAM2 131024Z 19002KT M05/M06 A2993 RMK A01 T10471058  RH  092%=      5-min Rain = 0
KAM2 131025Z 19002KT M05/M06 A2993 RMK A01 T10471058  RH  092%=      5-min Rain = 0
KAM2 131026Z 19002KT M05/M06 A2993 RMK A01 T10471058  RH  092%=      5-min Rain = 0
KAM2 131027Z 19002KT M05/M06 A2993 RMK A01 T10471058  RH  092%=      5-min Rain = 0
KAM2 131028Z 19002KT M05/M06 A2993 RMK A01 T10471058  RH  092%=      5-min Rain = 0
KAM2 131029Z 19001KT M05/M06 A2993 RMK A01 T10471058  RH  092%=      5-min Rain = 0
KAM2 131030Z 18001KT M05/M06 A2993 RMK A01 T10471058  RH  092%=      5-min Rain = 0
KAM2 131031Z 19001KT M05/M06 A2993 RMK A01 T10471058  RH  092%=      5-min Rain = 0
KAM2 131032Z 18001KT M05/M06 A2993 RMK A01 T10471058  RH  092%=      5-min Rain = 0
KAM2 131033Z 18001KT M05/M06 A2993 RMK A01 T10471058  RH  092%=      5-min Rain = 0
KAM2 131034Z 17001KT M05/M06 A2993 RMK A01 T10471058  RH  092%=      5-min Rain = 0
KAM2 131035Z 17000KT M05/M06 A2993 RMK A01 T10471058  RH  092%=      5-min Rain = 0
KAM2 131036Z 00000KT M05/M06 A2994 RMK A01 T10471057  RH  092%=      5-min Rain = 0
KAM2 131037Z 17000KT M05/M06 A2994 RMK A01 T10461057  RH  092%=      5-min Rain = 0
KAM2 131038Z 16000KT M05/M06 A2993 RMK A01 T10461056  RH  093%=      5-min Rain = 0
KAM2 131039Z 17001KT M05/M06 A2993 RMK A01 T10451056  RH  093%=      5-min Rain = 0
KAM2 131040Z 17001KT M05/M06 A2993 RMK A01 T10451056  RH  092%=      5-min Rain = 0
KAM2 131041Z 18001KT M05/M06 A2993 RMK A01 T10451057  RH  092%=      5-min Rain = 0
KAM2 131042Z 18001KT M05/M06 A2993 RMK A01 T10451057  RH  092%=      5-min Rain = 0
KAM2 131043Z 19001KT M05/M06 A2993 RMK A01 T10451057  RH  092%=      5-min Rain = 0
KAM2 131044Z 19001KT M05/M06 A2993 RMK A01 T10461058  RH  092%=      5-min Rain = 0
KAM2 131045Z 18002KT M05/M06 A2993 RMK A01 T10461058  RH  092%=      5-min Rain = 0
KAM2 131046Z 18002KT M05/M06 A2993 RMK A01 T10461058  RH  092%=      5-min Rain = 0
KAM2 131047Z 18002KT M05/M06 A2993 RMK A01 T10461058  RH  092%=      5-min Rain = 0
KAM2 131048Z 18002KT M05/M06 A2993 RMK A01 T10471059  RH  092%=      5-min Rain = 0
KAM2 131049Z 18002KT M05/M06 A2993 RMK A01 T10471058  RH  092%=      5-min Rain = 0
KAM2 131050Z 19003KT M05/M06 A2993 RMK A01 T10471057  RH  092%=      5-min Rain = 0
KAM2 131051Z 20002KT M05/M06 A2993 RMK A01 T10461057  RH  092%=      5-min Rain = 0
KAM2 131052Z 19002KT M05/M06 A2993 RMK A01 T10461057  RH  092%=      5-min Rain = 0
KAM2 131053Z 19001KT M05/M06 A2993 RMK A01 T10461058  RH  092%=      5-min Rain = 0
KAM2 131054Z 18002KT M05/M06 A2992 RMK A01 T10461058  RH  092%=      5-min Rain = 0
KAM2 131055Z 18002KT M05/M06 A2992 RMK A01 T10471059  RH  091%=      5-min Rain = 0
KAM2 131056Z 18002KT M05/M06 A2992 RMK A01 T10481060  RH  091%=      5-min Rain = 0
KAM2 131057Z 18002KT M05/M06 A2992 RMK A01 T10491061  RH  091%=      5-min Rain = 0
KAM2 131058Z 18002KT M05/M06 A2992 RMK A01 T10491061  RH  091%=      5-min Rain = 0
KAM2 131059Z 19002KT M05/M06 A2992 RMK A01 T10491061  RH  091%=      5-min Rain = 0
KAM2 131100Z 18002KT M05/M06 A2992 RMK A01 T10501062  RH  091%=      5-min Rain = 0
KAM2 131101Z 19002KT M05/M06 A2992 RMK A01 T10501062  RH  091%=      5-min Rain = 0
KAM2 131102Z 19002KT M05/M06 A2992 RMK A01 T10511063  RH  091%=      5-min Rain = 0
KAM2 131103Z 19002KT M05/M06 A2992 RMK A01 T10511063  RH  091%=      5-min Rain = 0
KAM2 131104Z 19002KT M05/M06 A2992 RMK A01 T10521064  RH  091%=      5-min Rain = 0
KAM2 131105Z 20002KT M05/M06 A2992 RMK A01 T10521064  RH  091%=      5-min Rain = 0
KAM2 131106Z 19002KT M05/M06 A2992 RMK A01 T10531064  RH  092%=      5-min Rain = 0
KAM2 131107Z 20001KT M05/M07 A2992 RMK A01 T10531065  RH  092%=      5-min Rain = 0
KAM2 131108Z 20001KT M05/M06 A2992 RMK A01 T10521063  RH  092%=      5-min Rain = 0
KAM2 131109Z 19002KT M05/M06 A2992 RMK A01 T10521062  RH  092%=      5-min Rain = 0
KAM2 131110Z 19002KT M05/M06 A2992 RMK A01 T10511062  RH  092%=      5-min Rain = 0
KAM2 131111Z 18000KT M05/M06 A2992 RMK A01 T10501061  RH  092%=      5-min Rain = 0
KAM2 131112Z 18001KT M05/M07 A2992 RMK A01 T10521065  RH  091%=      5-min Rain = 0
KAM2 131113Z 20003KT M05/M07 A2992 RMK A01 T10541066  RH  091%=      5-min Rain = 0
KAM2 131114Z 20003KT M05/M06 A2992 RMK A01 T10531064  RH  092%=      5-min Rain = 0
KAM2 131115Z 20002KT M05/M06 A2992 RMK A01 T10521064  RH  092%=      5-min Rain = 0
KAM2 131116Z 21001KT M05/M06 A2992 RMK A01 T10521063  RH  092%=      5-min Rain = 0
KAM2 131117Z 18001KT M05/M06 A2992 RMK A01 T10531064  RH  092%=      5-min Rain = 0
KAM2 131118Z 20002KT M05/M07 A2992 RMK A01 T10541066  RH  091%=      5-min Rain = 0
KAM2 131119Z 21002KT M05/M07 A2992 RMK A01 T10541066  RH  092%=      5-min Rain = 0
KAM2 131120Z 22002KT M05/M07 A2992 RMK A01 T10541065  RH  092%=      5-min Rain = 0
KAM2 131121Z 21002KT M05/M07 A2992 RMK A01 T10541065  RH  092%=      5-min Rain = 0
KAM2 131122Z 22002KT M05/M06 A2992 RMK A01 T10531064  RH  092%=      5-min Rain = 0
KAM2 131123Z 22002KT M05/M06 A2992 RMK A01 T10531064  RH  092%=      5-min Rain = 0
KAM2 131124Z 22002KT M05/M06 A2992 RMK A01 T10541064  RH  092%=      5-min Rain = 0
KAM2 131125Z 22002KT M05/M06 A2992 RMK A01 T10541064  RH  092%=      5-min Rain = 0
KAM2 131126Z 22002KT M05/M06 A2992 RMK A01 T10541064  RH  092%=      5-min Rain = 0
KAM2 131127Z 22001KT M05/M06 A2992 RMK A01 T10531063  RH  093%=      5-min Rain = 0
KAM2 131128Z 22001KT M05/M06 A2992 RMK A01 T10531064  RH  092%=      5-min Rain = 0
KAM2 131129Z 21000KT M05/M06 A2992 RMK A01 T10541064  RH  092%=      5-min Rain = 0
KAM2 131130Z 24001KT M05/M07 A2992 RMK A01 T10541065  RH  092%=      5-min Rain = 0
KAM2 131131Z 24001KT M06/M07 A2992 RMK A01 T10551066  RH  092%=      5-min Rain = 0
KAM2 131132Z 25001KT M06/M07 A2992 RMK A01 T10551066  RH  092%=      5-min Rain = 0
KAM2 131133Z 26001KT M06/M07 A2992 RMK A01 T10551066  RH  092%=      5-min Rain = 0
KAM2 131134Z 28001KT M06/M07 A2992 RMK A01 T10561067  RH  092%=      5-min Rain = 0
KAM2 131135Z 27001KT M06/M07 A2992 RMK A01 T10561067  RH  092%=      5-min Rain = 0
KAM2 131136Z 27001KT M06/M07 A2992 RMK A01 T10561066  RH  093%=      5-min Rain = 0
KAM2 131137Z 29000KT M06/M07 A2992 RMK A01 T10561066  RH  093%=      5-min Rain = 0
KAM2 131138Z 00000KT M06/M07 A2992 RMK A01 T10561066  RH  093%=      5-min Rain = 0
KAM2 131139Z 00000KT M06/M07 A2992 RMK A01 T10561066  RH  093%=      5-min Rain = 0
KAM2 131140Z 29000KT M06/M07 A2992 RMK A01 T10561065  RH  093%=      5-min Rain = 0
KAM2 131141Z 31000KT M06/M06 A2992 RMK A01 T10551063  RH  094%=      5-min Rain = 0
KAM2 131142Z 00000KT M05/M06 A2992 RMK A01 T10531061  RH  094%=      5-min Rain = 0
KAM2 131143Z 32000KT M05/M06 A2992 RMK A01 T10521059  RH  095%=      5-min Rain = 0
KAM2 131144Z 33000KT M05/M06 A2992 RMK A01 T10511059  RH  095%=      5-min Rain = 0
KAM2 131145Z 00000KT M05/M06 A2992 RMK A01 T10511058  RH  095%=      5-min Rain = 0
KAM2 131146Z 00000KT M05/M06 A2992 RMK A01 T10501057  RH  095%=      5-min Rain = 0
KAM2 131147Z 02000KT M05/M06 A2992 RMK A01 T10501058  RH  094%=      5-min Rain = 0
KAM2 131148Z 00000KT M05/M06 A2992 RMK A01 T10521060  RH  094%=      5-min Rain = 0
KAM2 131149Z 00000KT M05/M06 A2992 RMK A01 T10531063  RH  093%=      5-min Rain = 0
KAM2 131150Z 00000KT M05/M06 A2992 RMK A01 T10541064  RH  092%=      5-min Rain = 0
KAM2 131151Z 33000KT M05/M06 A2992 RMK A01 T10541064  RH  093%=      5-min Rain = 0
KAM2 131152Z 32001KT M05/M06 A2992 RMK A01 T10541063  RH  093%=      5-min Rain = 0
KAM2 131153Z 31001KT M05/M06 A2992 RMK A01 T10531061  RH  094%=      5-min Rain = 0
KAM2 131154Z 31001KT M05/M06 A2992 RMK A01 T10531060  RH  094%=      5-min Rain = 0
KAM2 131155Z 32001KT M05/M06 A2992 RMK A01 T10531060  RH  094%=      5-min Rain = 0
KAM2 131156Z 33000KT M05/M06 A2992 RMK A01 T10531061  RH  094%=      5-min Rain = 0
KAM2 131157Z 33001KT M06/M07 A2992 RMK A01 T10551065  RH  093%=      5-min Rain = 0
KAM2 131158Z 33000KT M06/M07 A2992 RMK A01 T10571066  RH  093%=      5-min Rain = 0
KAM2 131159Z 00000KT M06/M07 A2992 RMK A01 T10571067  RH  093%=      5-min Rain = 0
KAM2 131200Z 00000KT M06/M07 A2992 RMK A01 T10571066  RH  093%=      5-min Rain = 0
KAM2 131201Z 00000KT M06/M07 A2992 RMK A01 T10561065  RH  094%=      5-min Rain = 0
KAM2 131202Z 00000KT M06/M07 A2992 RMK A01 T10561065  RH  094%=      5-min Rain = 0
KAM2 131203Z 00000KT M06/M06 A2992 RMK A01 T10551064  RH  094%=      5-min Rain = 0
KAM2 131204Z 21000KT M06/M06 A2992 RMK A01 T10551064  RH  093%=      5-min Rain = 0
KAM2 131205Z 00000KT M06/M07 A2992 RMK A01 T10561066  RH  093%=      5-min Rain = 0
KAM2 131206Z 00000KT M06/M07 A2992 RMK A01 T10571067  RH  092%=      5-min Rain = 0
KAM2 131207Z 20001KT M06/M07 A2992 RMK A01 T10571067  RH  093%=      5-min Rain = 0
KAM2 131208Z 19001KT M06/M07 A2992 RMK A01 T10581068  RH  093%=      5-min Rain = 0
KAM2 131209Z 19001KT M06/M07 A2992 RMK A01 T10591069  RH  093%=      5-min Rain = 0
KAM2 131210Z 19001KT M06/M07 A2992 RMK A01 T10601069  RH  093%=      5-min Rain = 0
KAM2 131216Z 20001KT M06/M07 A2992 RMK A01 T10571065  RH  094%=      5-min Rain = 0
KAM2 131217Z 22001KT M06/M07 A2992 RMK A01 T10571065  RH  094%=      5-min Rain = 0
KAM2 131218Z 21001KT M06/M06 A2992 RMK A01 T10561064  RH  094%=      5-min Rain = 0
KAM2 131219Z 23001KT M06/M06 A2992 RMK A01 T10551063  RH  094%=      5-min Rain = 0
KAM2 131220Z 24000KT M06/M07 A2992 RMK A01 T10561065  RH  093%=      5-min Rain = 0
KAM2 131221Z 23000KT M06/M07 A2992 RMK A01 T10561065  RH  093%=      5-min Rain = 0
KAM2 131222Z 22000KT M06/M07 A2992 RMK A01 T10561065  RH  093%=      5-min Rain = 0
KAM2 131223Z 22001KT M06/M07 A2992 RMK A01 T10561065  RH  093%=      5-min Rain = 0
KAM2 131224Z 22001KT M06/M07 A2992 RMK A01 T10561065  RH  093%=      5-min Rain = 0
KAM2 131225Z 24002KT M06/M07 A2992 RMK A01 T10571066  RH  093%=      5-min Rain = 0
KAM2 131226Z 25001KT M06/M07 A2992 RMK A01 T10571067  RH  093%=      5-min Rain = 0
KAM2 131227Z 25001KT M06/M07 A2992 RMK A01 T10571067  RH  093%=      5-min Rain = 0
KAM2 131228Z 25000KT M06/M07 A2992 RMK A01 T10581067  RH  093%=      5-min Rain = 0
KAM2 131229Z 00000KT M06/M07 A2992 RMK A01 T10581068  RH  093%=      5-min Rain = 0
KAM2 131230Z 00000KT M06/M07 A2992 RMK A01 T10591069  RH  093%=      5-min Rain = 0
KAM2 131231Z 00000KT M06/M07 A2992 RMK A01 T10591069  RH  093%=      5-min Rain = 0
KAM2 131232Z 22000KT M06/M07 A2992 RMK A01 T10591069  RH  093%=      5-min Rain = 0
KAM2 131233Z 22000KT M06/M07 A2992 RMK A01 T10601069  RH  093%=      5-min Rain = 0
KAM2 131234Z 23001KT M06/M07 A2992 RMK A01 T10601069  RH  093%=      5-min Rain = 0
KAM2 131235Z 24001KT M06/M07 A2992 RMK A01 T10601069  RH  093%=      5-min Rain = 0
KAM2 131236Z 24001KT M06/M07 A2992 RMK A01 T10591069  RH  093%=      5-min Rain = 0
KAM2 131237Z 24000KT M06/M07 A2992 RMK A01 T10591068  RH  093%=      5-min Rain = 0
KAM2 131238Z 00000KT M06/M07 A2992 RMK A01 T10591067  RH  094%=      5-min Rain = 0
KAM2 131239Z 11000KT M06/M07 A2992 RMK A01 T10581066  RH  094%=      5-min Rain = 0
KAM2 131240Z 07001KT M06/M07 A2992 RMK A01 T10591067  RH  094%=      5-min Rain = 0
KAM2 131241Z 04001KT M06/M07 A2992 RMK A01 T10591068  RH  093%=      5-min Rain = 0
KAM2 131242Z 01001KT M06/M07 A2992 RMK A01 T10601070  RH  093%=      5-min Rain = 0
KAM2 131243Z 36001KT M06/M07 A2992 RMK A01 T10621072  RH  092%=      5-min Rain = 0
KAM2 131244Z 01001KT M06/M07 A2992 RMK A01 T10621072  RH  092%=      5-min Rain = 0
KAM2 131245Z 02002KT M06/M07 A2992 RMK A01 T10621071  RH  093%=      5-min Rain = 0
KAM2 131246Z 02002KT M06/M07 A2992 RMK A01 T10601067  RH  094%=      5-min Rain = 0
KAM2 131247Z 01002KT M06/M07 A2992 RMK A01 T10581065  RH  095%=      5-min Rain = 0
KAM2 131248Z 01001KT M06/M07 A2992 RMK A01 T10581065  RH  095%=      5-min Rain = 0
KAM2 131249Z 00000KT M06/M07 A2992 RMK A01 T10581065  RH  095%=      5-min Rain = 0
KAM2 131250Z 00000KT M06/M07 A2992 RMK A01 T10591066  RH  094%=      5-min Rain = 0
KAM2 131251Z 00000KT M06/M07 A2992 RMK A01 T10591068  RH  094%=      5-min Rain = 0
KAM2 131252Z 05000KT M06/M07 A2992 RMK A01 T10591067  RH  094%=      5-min Rain = 0
KAM2 131253Z 04000KT M06/M07 A2992 RMK A01 T10591067  RH  094%=      5-min Rain = 0
KAM2 131254Z 00000KT M06/M07 A2992 RMK A01 T10591067  RH  094%=      5-min Rain = 0
KAM2 131255Z 00000KT M06/M07 A2992 RMK A01 T10591067  RH  094%=      5-min Rain = 0
KAM2 131256Z 21001KT M06/M07 A2992 RMK A01 T10581066  RH  094%=      5-min Rain = 0
KAM2 131257Z 20002KT M06/M07 A2992 RMK A01 T10591068  RH  093%=      5-min Rain = 0
KAM2 131258Z 20002KT M06/M07 A2992 RMK A01 T10601071  RH  092%=      5-min Rain = 0
KAM2 131259Z 18002KT M06/M07 A2992 RMK A01 T10611072  RH  092%=      5-min Rain = 0
KAM2 131300Z 18002KT M06/M07 A2992 RMK A01 T10591068  RH  094%=      5-min Rain = 0
KAM2 131301Z 19001KT M06/M06 A2992 RMK A01 T10561064  RH  095%=      5-min Rain = 0
KAM2 131302Z 18001KT M06/M07 A2992 RMK A01 T10571065  RH  094%=      5-min Rain = 0
KAM2 131303Z 18002KT M06/M07 A2992 RMK A01 T10591068  RH  093%=      5-min Rain = 0
KAM2 131304Z 17001KT M06/M07 A2992 RMK A01 T10591070  RH  093%=      5-min Rain = 0
KAM2 131305Z 17001KT M06/M07 A2993 RMK A01 T10591068  RH  093%=      5-min Rain = 0
KAM2 131306Z 16000KT M06/M07 A2992 RMK A01 T10581067  RH  094%=      5-min Rain = 0
KAM2 131307Z 17001KT M06/M07 A2992 RMK A01 T10581066  RH  094%=      5-min Rain = 0
KAM2 131308Z 17001KT M06/M07 A2992 RMK A01 T10571066  RH  094%=      5-min Rain = 0
KAM2 131309Z 17001KT M06/M07 A2992 RMK A01 T10571066  RH  093%=      5-min Rain = 0
KAM2 131310Z 15001KT M06/M07 A2993 RMK A01 T10571067  RH  093%=      5-min Rain = 0
KAM2 131311Z 16001KT M06/M07 A2993 RMK A01 T10581068  RH  093%=      5-min Rain = 0
KAM2 131312Z 16001KT M06/M07 A2993 RMK A01 T10581069  RH  093%=      5-min Rain = 0
KAM2 131313Z 16001KT M06/M07 A2993 RMK A01 T10591070  RH  092%=      5-min Rain = 0
KAM2 131314Z 16001KT M06/M07 A2993 RMK A01 T10601070  RH  092%=      5-min Rain = 0
KAM2 131315Z 16000KT M06/M07 A2993 RMK A01 T10591069  RH  093%=      5-min Rain = 0
KAM2 131316Z 17000KT M06/M07 A2993 RMK A01 T10591068  RH  093%=      5-min Rain = 0
KAM2 131317Z 16000KT M06/M07 A2993 RMK A01 T10581067  RH  093%=      5-min Rain = 0
KAM2 131318Z 15000KT M06/M07 A2993 RMK A01 T10581067  RH  093%=      5-min Rain = 0
KAM2 131319Z 14001KT M06/M07 A2993 RMK A01 T10581068  RH  093%=      5-min Rain = 0
KAM2 131320Z 14001KT M06/M07 A2993 RMK A01 T10591069  RH  093%=      5-min Rain = 0
KAM2 131321Z 12001KT M06/M07 A2993 RMK A01 T10591069  RH  093%=      5-min Rain = 0
KAM2 131322Z 13001KT M06/M07 A2992 RMK A01 T10591068  RH  093%=      5-min Rain = 0
KAM2 131323Z 15001KT M06/M07 A2992 RMK A01 T10581067  RH  093%=      5-min Rain = 0
KAM2 131324Z 17002KT M06/M07 A2992 RMK A01 T10581067  RH  093%=      5-min Rain = 0
KAM2 131325Z 18002KT M06/M07 A2992 RMK A01 T10581068  RH  093%=      5-min Rain = 0
KAM2 131326Z 17002KT M06/M07 A2992 RMK A01 T10581068  RH  093%=      5-min Rain = 0
KAM2 131327Z 19003KT M06/M07 A2992 RMK A01 T10581069  RH  092%=      5-min Rain = 0
KAM2 131328Z 16001KT M06/M07 A2992 RMK A01 T10591070  RH  092%=      5-min Rain = 0
KAM2 131329Z 14001KT M06/M07 A2992 RMK A01 T10601070  RH  092%=      5-min Rain = 0
KAM2 131330Z 11001KT M06/M07 A2992 RMK A01 T10601070  RH  093%=      5-min Rain = 0
KAM2 131331Z 09001KT M06/M07 A2992 RMK A01 T10611071  RH  093%=      5-min Rain = 0
KAM2 131332Z 11000KT M06/M07 A2992 RMK A01 T10621072  RH  093%=      5-min Rain = 0
KAM2 131333Z 09001KT M06/M07 A2992 RMK A01 T10621073  RH  092%=      5-min Rain = 0
KAM2 131334Z 11001KT M06/M07 A2992 RMK A01 T10631074  RH  092%=      5-min Rain = 0
KAM2 131335Z 07000KT M06/M07 A2992 RMK A01 T10631074  RH  092%=      5-min Rain = 0
KAM2 131336Z 06000KT M06/M07 A2992 RMK A01 T10631073  RH  093%=      5-min Rain = 0
KAM2 131337Z 06001KT M06/M07 A2993 RMK A01 T10621071  RH  094%=      5-min Rain = 0
KAM2 131338Z 06001KT M06/M07 A2993 RMK A01 T10611068  RH  094%=      5-min Rain = 0
KAM2 131339Z 06000KT M06/M07 A2993 RMK A01 T10591065  RH  095%=      5-min Rain = 0
KAM2 131340Z 00000KT M06/M06 A2992 RMK A01 T10571063  RH  096%=      5-min Rain = 0
KAM2 131341Z 11000KT M06/M06 A2992 RMK A01 T10551060  RH  096%=      5-min Rain = 0
KAM2 131342Z 00000KT M06/M06 A2993 RMK A01 T10561064  RH  094%=      5-min Rain = 0
KAM2 131343Z 00000KT M06/M07 A2993 RMK A01 T10581068  RH  093%=      5-min Rain = 0
KAM2 131344Z 00000KT M06/M07 A2992 RMK A01 T10601070  RH  092%=      5-min Rain = 0
KAM2 131345Z 00000KT M06/M07 A2992 RMK A01 T10601069  RH  093%=      5-min Rain = 0
KAM2 131346Z 00000KT M06/M07 A2992 RMK A01 T10591068  RH  093%=      5-min Rain = 0
KAM2 131347Z 00000KT M06/M07 A2992 RMK A01 T10591067  RH  094%=      5-min Rain = 0
KAM2 131348Z 00000KT M06/M07 A2992 RMK A01 T10591068  RH  093%=      5-min Rain = 0
KAM2 131349Z 00000KT M06/M07 A2992 RMK A01 T10601070  RH  093%=      5-min Rain = 0
KAM2 131350Z 00000KT M06/M07 A2993 RMK A01 T10601069  RH  093%=      5-min Rain = 0
KAM2 131351Z 00000KT M06/M07 A2993 RMK A01 T10591067  RH  094%=      5-min Rain = 0
KAM2 131352Z 00000KT M06/M07 A2993 RMK A01 T10571065  RH  094%=      5-min Rain = 0
KAM2 131353Z 00000KT M06/M06 A2993 RMK A01 T10551063  RH  095%=      5-min Rain = 0
KAM2 131354Z 00000KT M06/M06 A2993 RMK A01 T10551064  RH  094%=      5-min Rain = 0
KAM2 131355Z 00000KT M06/M07 A2993 RMK A01 T10571066  RH  093%=      5-min Rain = 0
KAM2 131356Z 00000KT M06/M07 A2993 RMK A01 T10591070  RH  091%=      5-min Rain = 0
KAM2 131357Z 00000KT M06/M08 A2993 RMK A01 T10621076  RH  090%=      5-min Rain = 0
KAM2 131358Z 00000KT M06/M08 A2993 RMK A01 T10631077  RH  090%=      5-min Rain = 0
KAM2 131359Z 00000KT M06/M08 A2993 RMK A01 T10631075  RH  091%=      5-min Rain = 0
KAM2 131400Z 00000KT M06/M07 A2993 RMK A01 T10611072  RH  092%=      5-min Rain = 0
KAM2 131401Z 00000KT M06/M07 A2993 RMK A01 T10601070  RH  093%=      5-min Rain = 0
KAM2 131402Z 00000KT M06/M07 A2993 RMK A01 T10591069  RH  093%=      5-min Rain = 0
KAM2 131403Z 00000KT M06/M07 A2993 RMK A01 T10591068  RH  093%=      5-min Rain = 0
KAM2 131404Z 00000KT M06/M07 A2993 RMK A01 T10581069  RH  092%=      5-min Rain = 0
KAM2 131405Z 00000KT M06/M07 A2993 RMK A01 T10571068  RH  092%=      5-min Rain = 0
KAM2 131406Z 00000KT M06/M07 A2993 RMK A01 T10551066  RH  092%=      5-min Rain = 0
KAM2 131407Z 00000KT M05/M07 A2993 RMK A01 T10541065  RH  092%=      5-min Rain = 0
KAM2 131408Z 19000KT M05/M07 A2993 RMK A01 T10531066  RH  091%=      5-min Rain = 0
KAM2 131409Z 19000KT M05/M07 A2993 RMK A01 T10531066  RH  090%=      5-min Rain = 0
KAM2 131410Z 22001KT M05/M07 A2993 RMK A01 T10531068  RH  090%=      5-min Rain = 0
KAM2 131411Z 22001KT M05/M07 A2993 RMK A01 T10531068  RH  089%=      5-min Rain = 0
KAM2 131412Z 22000KT M05/M07 A2993 RMK A01 T10541069  RH  089%=      5-min Rain = 0
KAM2 131413Z 22001KT M05/M07 A2993 RMK A01 T10541069  RH  089%=      5-min Rain = 0
KAM2 131414Z 19000KT M05/M07 A2993 RMK A01 T10541069  RH  089%=      5-min Rain = 0
KAM2 131415Z 18001KT M05/M07 A2993 RMK A01 T10531067  RH  090%=      5-min Rain = 0
KAM2 131416Z 17001KT M05/M07 A2993 RMK A01 T10521065  RH  090%=      5-min Rain = 0
KAM2 131417Z 17001KT M05/M06 A2993 RMK A01 T10511064  RH  090%=      5-min Rain = 0
KAM2 131418Z 18001KT M05/M06 A2993 RMK A01 T10501064  RH  090%=      5-min Rain = 0
KAM2 131419Z 17002KT M05/M06 A2993 RMK A01 T10481061  RH  090%=      5-min Rain = 0
KAM2 131420Z 16001KT M05/M06 A2993 RMK A01 T10461059  RH  091%=      5-min Rain = 0
KAM2 131421Z 16001KT M04/M06 A2993 RMK A01 T10441057  RH  091%=      5-min Rain = 0
KAM2 131422Z 17001KT M04/M06 A2993 RMK A01 T10421055  RH  091%=      5-min Rain = 0
KAM2 131423Z 11000KT M04/M05 A2993 RMK A01 T10401053  RH  090%=      5-min Rain = 0
KAM2 131424Z 11000KT M04/M05 A2993 RMK A01 T10381052  RH  090%=      5-min Rain = 0
KAM2 131425Z 00000KT M04/M05 A2994 RMK A01 T10361051  RH  089%=      5-min Rain = 0
KAM2 131426Z 00000KT M04/M05 A2994 RMK A01 T10351051  RH  088%=      5-min Rain = 0
KAM2 131427Z 23000KT M03/M05 A2994 RMK A01 T10341052  RH  087%=      5-min Rain = 0
KAM2 131428Z 24001KT M04/M05 A2993 RMK A01 T10351054  RH  086%=      5-min Rain = 0
KAM2 131429Z 23001KT M04/M06 A2993 RMK A01 T10361056  RH  086%=      5-min Rain = 0
KAM2 131430Z 25001KT M04/M06 A2993 RMK A01 T10371056  RH  087%=      5-min Rain = 0
KAM2 131431Z 26000KT M04/M06 A2994 RMK A01 T10371056  RH  087%=      5-min Rain = 0
KAM2 131432Z 24000KT M04/M06 A2994 RMK A01 T10371055  RH  088%=      5-min Rain = 0
KAM2 131433Z 23000KT M04/M05 A2994 RMK A01 T10361053  RH  088%=      5-min Rain = 0
KAM2 131434Z 24001KT M03/M05 A2994 RMK A01 T10331049  RH  089%=      5-min Rain = 0
KAM2 131435Z 25001KT M03/M05 A2994 RMK A01 T10301046  RH  089%=      5-min Rain = 0
KAM2 131436Z 25000KT M03/M04 A2994 RMK A01 T10271044  RH  088%=      5-min Rain = 0
KAM2 131437Z 25001KT M02/M04 A2994 RMK A01 T10241044  RH  086%=      5-min Rain = 0
KAM2 131438Z 23001KT M02/M04 A2994 RMK A01 T10211041  RH  086%=      5-min Rain = 0
KAM2 131439Z 22000KT M02/M04 A2994 RMK A01 T10171038  RH  086%=      5-min Rain = 0
KAM2 131440Z 00000KT M01/M04 A2994 RMK A01 T10141036  RH  085%=      5-min Rain = 0
KAM2 131441Z 00000KT M01/M03 A2994 RMK A01 T10121034  RH  085%=      5-min Rain = 0
KAM2 131442Z 00000KT M01/M03 A2994 RMK A01 T10101033  RH  084%=      5-min Rain = 0
KAM2 131443Z 00000KT M01/M03 A2994 RMK A01 T10091032  RH  084%=      5-min Rain = 0
KAM2 131444Z 00000KT M01/M03 A2994 RMK A01 T10081032  RH  084%=      5-min Rain = 0
KAM2 131445Z 00000KT M01/M03 A2994 RMK A01 T10091033  RH  084%=      5-min Rain = 0
KAM2 131446Z 00000KT M01/M03 A2994 RMK A01 T10091033  RH  084%=      5-min Rain = 0
KAM2 131447Z 00000KT M01/M03 A2994 RMK A01 T10081032  RH  084%=      5-min Rain = 0
KAM2 131448Z 00000KT M01/M03 A2994 RMK A01 T10081033  RH  083%=      5-min Rain = 0
KAM2 131449Z 23000KT M01/M03 A2994 RMK A01 T10071033  RH  083%=      5-min Rain = 0
KAM2 131450Z 25000KT M01/M03 A2994 RMK A01 T10071032  RH  083%=      5-min Rain = 0
KAM2 131451Z 00000KT M01/M03 A2994 RMK A01 T10061030  RH  083%=      5-min Rain = 0
KAM2 131452Z 34000KT M00/M03 A2994 RMK A01 T10041031  RH  082%=      5-min Rain = 0
KAM2 131453Z 02001KT M00/M03 A2994 RMK A01 T10021029  RH  082%=      5-min Rain = 0
KAM2 131454Z 01001KT M00/M03 A2994 RMK A01 T10011026  RH  084%=      5-min Rain = 0
KAM2 131455Z 01001KT M00/M03 A2994 RMK A01 T10011027  RH  083%=      5-min Rain = 0
KAM2 131456Z 01001KT M00/M03 A2994 RMK A01 T10011029  RH  081%=      5-min Rain = 0
KAM2 131457Z 01001KT M00/M03 A2994 RMK A01 T10011031  RH  080%=      5-min Rain = 0
KAM2 131458Z 34001KT 00/M03 A2994 RMK A01 T00011030  RH  080%=      5-min Rain = 0
KAM2 131459Z 34001KT 00/M03 A2994 RMK A01 T00021029  RH  080%=      5-min Rain = 0
KAM2 131500Z 33001KT 00/M03 A2994 RMK A01 T00041028  RH  079%=      5-min Rain = 0
KAM2 131501Z 34001KT 01/M03 A2993 RMK A01 T00061026  RH  079%=      5-min Rain = 0
KAM2 131502Z 01001KT 01/M03 A2993 RMK A01 T00081025  RH  078%=      5-min Rain = 0
KAM2 131503Z 01002KT 01/M02 A2993 RMK A01 T00101023  RH  079%=      5-min Rain = 0
KAM2 131504Z 02002KT 01/M02 A2994 RMK A01 T00111022  RH  079%=      5-min Rain = 0
KAM2 131505Z 01002KT 01/M02 A2994 RMK A01 T00111023  RH  078%=      5-min Rain = 0
KAM2 131506Z 00002KT 01/M02 A2994 RMK A01 T00121022  RH  078%=      5-min Rain = 0
KAM2 131507Z 34002KT 01/M02 A2994 RMK A01 T00121022  RH  078%=      5-min Rain = 0
KAM2 131508Z 33002KT 01/M02 A2994 RMK A01 T00131021  RH  078%=      5-min Rain = 0
KAM2 131509Z 33003KT 01/M02 A2994 RMK A01 T00131022  RH  077%=      5-min Rain = 0
KAM2 131510Z 33002KT 01/M02 A2994 RMK A01 T00141022  RH  077%=      5-min Rain = 0
KAM2 131511Z 34003KT 02/M02 A2994 RMK A01 T00151021  RH  077%=      5-min Rain = 0
KAM2 131512Z 35002KT 02/M02 A2994 RMK A01 T00161019  RH  078%=      5-min Rain = 0
KAM2 131513Z 35002KT 02/M02 A2994 RMK A01 T00171015  RH  079%=      5-min Rain = 0
KAM2 131514Z 34002KT 02/M02 A2994 RMK A01 T00171016  RH  079%=      5-min Rain = 0
KAM2 131515Z 34002KT 02/M02 A2994 RMK A01 T00171019  RH  077%=      5-min Rain = 0
KAM2 131516Z 34001KT 02/M02 A2994 RMK A01 T00171019  RH  077%=      5-min Rain = 0
KAM2 131517Z 34002KT 02/M02 A2994 RMK A01 T00171019  RH  077%=      5-min Rain = 0
KAM2 131518Z 34001KT 02/M02 A2994 RMK A01 T00171019  RH  077%=      5-min Rain = 0
KAM2 131519Z 35001KT 02/M02 A2994 RMK A01 T00171018  RH  077%=      5-min Rain = 0
KAM2 131520Z 01001KT 02/M02 A2994 RMK A01 T00181018  RH  077%=      5-min Rain = 0
KAM2 131521Z 35000KT 02/M02 A2994 RMK A01 T00191016  RH  078%=      5-min Rain = 0
KAM2 131522Z 00000KT 02/M02 A2993 RMK A01 T00191016  RH  077%=      5-min Rain = 0
KAM2 131523Z 00000KT 02/M02 A2993 RMK A01 T00191017  RH  077%=      5-min Rain = 0
KAM2 131524Z 10000KT 02/M02 A2993 RMK A01 T00201016  RH  077%=      5-min Rain = 0
KAM2 131525Z 07000KT 02/M01 A2993 RMK A01 T00211014  RH  077%=      5-min Rain = 0
KAM2 131526Z 06000KT 02/M01 A2993 RMK A01 T00231013  RH  077%=      5-min Rain = 0
KAM2 131527Z 33000KT 02/M01 A2993 RMK A01 T00241013  RH  077%=      5-min Rain = 0
KAM2 131528Z 34000KT 03/M01 A2993 RMK A01 T00251012  RH  076%=      5-min Rain = 0
KAM2 131529Z 34001KT 03/M01 A2994 RMK A01 T00261011  RH  076%=      5-min Rain = 0
KAM2 131530Z 02001KT 03/M01 A2994 RMK A01 T00281011  RH  076%=      5-min Rain = 0
KAM2 131531Z 02001KT 03/M01 A2994 RMK A01 T00301012  RH  074%=      5-min Rain = 0
KAM2 131532Z 01001KT 03/M01 A2994 RMK A01 T00311012  RH  073%=      5-min Rain = 0
KAM2 131533Z 00002KT 03/M01 A2994 RMK A01 T00331011  RH  073%=      5-min Rain = 0
KAM2 131534Z 01002KT 03/M01 A2994 RMK A01 T00341010  RH  073%=      5-min Rain = 0
KAM2 131535Z 02002KT 04/M01 A2994 RMK A01 T00351010  RH  072%=      5-min Rain = 0
KAM2 131536Z 01002KT 04/M01 A2994 RMK A01 T00361009  RH  072%=      5-min Rain = 0
KAM2 131537Z 36002KT 04/M01 A2994 RMK A01 T00361011  RH  071%=      5-min Rain = 0
KAM2 131538Z 00002KT 04/M01 A2994 RMK A01 T00371011  RH  071%=      5-min Rain = 0
KAM2 131539Z 36002KT 04/M01 A2994 RMK A01 T00371012  RH  070%=      5-min Rain = 0
KAM2 131540Z 34002KT 04/M01 A2994 RMK A01 T00381010  RH  071%=      5-min Rain = 0
KAM2 131541Z 00001KT 04/M01 A2994 RMK A01 T00381009  RH  071%=      5-min Rain = 0
KAM2 131542Z 33001KT 04/M01 A2994 RMK A01 T00401006  RH  072%=      5-min Rain = 0
KAM2 131543Z 33002KT 04/M01 A2994 RMK A01 T00421005  RH  072%=      5-min Rain = 0
KAM2 131544Z 31003KT 04/M00 A2994 RMK A01 T00441004  RH  071%=      5-min Rain = 0
KAM2 131545Z 30004KT 05/M01 A2994 RMK A01 T00481007  RH  067%=      5-min Rain = 0
KAM2 131546Z 31004KT 05/M01 A2994 RMK A01 T00531009  RH  064%=      5-min Rain = 0
KAM2 131547Z 30004KT 06/M01 A2994 RMK A01 T00581010  RH  062%=      5-min Rain = 0
KAM2 131548Z 30005KT 06/M01 A2994 RMK A01 T00601010  RH  060%=      5-min Rain = 0
KAM2 131549Z 29004KT 06/M01 A2994 RMK A01 T00621013  RH  059%=      5-min Rain = 0
KAM2 131550Z 29004KT 06/M01 A2994 RMK A01 T00641011  RH  059%=      5-min Rain = 0
KAM2 131551Z 29006KT 07/M01 A2994 RMK A01 T00661013  RH  057%=      5-min Rain = 0
KAM2 131552Z 28007KT 07/M02 A2994 RMK A01 T00671017  RH  055%=      5-min Rain = 0
KAM2 131553Z 29005KT 07/M02 A2994 RMK A01 T00681018  RH  054%=      5-min Rain = 0
KAM2 131554Z 29005KT 07/M02 A2994 RMK A01 T00691019  RH  053%=      5-min Rain = 0
KAM2 131555Z 29005KT 07/M02 A2994 RMK A01 T00701018  RH  053%=      5-min Rain = 0
KAM2 131556Z 30005KT 07/M02 A2994 RMK A01 T00711016  RH  054%=      5-min Rain = 0
KAM2 131557Z 30006KT 07/M02 A2994 RMK A01 T00731016  RH  053%=      5-min Rain = 0
KAM2 131558Z 29004KT 07/M02 A2994 RMK A01 T00731018  RH  052%=      5-min Rain = 0
KAM2 131559Z 30006KT 08/M02 A2994 RMK A01 T00751015  RH  053%=      5-min Rain = 0
KAM2 131600Z 30007KT 08/M02 A2994 RMK A01 T00761018  RH  051%=      5-min Rain = 0
KAM2 131601Z 30006KT 08/M02 A2994 RMK A01 T00771018  RH  051%=      5-min Rain = 0
KAM2 131602Z 29007KT 08/M02 A2994 RMK A01 T00781016  RH  051%=      5-min Rain = 0
KAM2 131603Z 30007KT 08/M02 A2994 RMK A01 T00791017  RH  051%=      5-min Rain = 0
KAM2 131604Z 30007KT 08/M02 A2994 RMK A01 T00791017  RH  051%=      5-min Rain = 0
KAM2 131605Z 30007KT 08/M02 A2994 RMK A01 T00801016  RH  050%=      5-min Rain = 0
KAM2 131606Z 30005KT 08/M02 A2994 RMK A01 T00811016  RH  050%=      5-min Rain = 0
KAM2 131607Z 30005KT 08/M02 A2994 RMK A01 T00831015  RH  050%=      5-min Rain = 0
KAM2 131608Z 30005KT 09/M02 A2994 RMK A01 T00851015  RH  050%=      5-min Rain = 0
KAM2 131609Z 30006KT 09/M02 A2994 RMK A01 T00861015  RH  049%=      5-min Rain = 0
KAM2 131610Z 31006KT 09/M02 A2994 RMK A01 T00881015  RH  049%=      5-min Rain = 0
KAM2 131611Z 30006KT 09/M02 A2994 RMK A01 T00881016  RH  048%=      5-min Rain = 0
KAM2 131612Z 30007KT 09/M02 A2994 RMK A01 T00901015  RH  048%=      5-min Rain = 0
KAM2 131613Z 29008KT 09/M02 A2994 RMK A01 T00911015  RH  047%=      5-min Rain = 0
KAM2 131614Z 29009KT 09/M02 A2993 RMK A01 T00921015  RH  047%=      5-min Rain = 0
KAM2 131615Z 30008KT 09/M02 A2993 RMK A01 T00921016  RH  047%=      5-min Rain = 0
KAM2 131616Z 30009KT 09/M02 A2993 RMK A01 T00931015  RH  047%=      5-min Rain = 0
KAM2 131617Z 30008KT 09/M02 A2993 RMK A01 T00931015  RH  047%=      5-min Rain = 0
KAM2 131618Z 30008KT 09/M02 A2993 RMK A01 T00941015  RH  047%=      5-min Rain = 0
KAM2 131619Z 30008KT 10/M02 A2993 RMK A01 T00951015  RH  046%=      5-min Rain = 0
KAM2 131620Z 30009KT 10/M02 A2993 RMK A01 T00951015  RH  046%=      5-min Rain = 0
KAM2 131621Z 30007KT 10/M02 A2993 RMK A01 T00961016  RH  046%=      5-min Rain = 0
KAM2 131622Z 29009KT 10/M02 A2993 RMK A01 T00971015  RH  046%=      5-min Rain = 0
KAM2 131623Z 30012KT 10/M02 A2994 RMK A01 T00981016  RH  045%=      5-min Rain = 0
KAM2 131624Z 30009KT 10/M02 A2994 RMK A01 T00981018  RH  044%=      5-min Rain = 0
KAM2 131625Z 29012KT 10/M02 A2994 RMK A01 T00981016  RH  045%=      5-min Rain = 0
KAM2 131626Z 30010KT 10/M02 A2994 RMK A01 T00991018  RH  044%=      5-min Rain = 0
KAM2 131627Z 31011KT 10/M02 A2994 RMK A01 T00991016  RH  045%=      5-min Rain = 0
KAM2 131628Z 30008KT 10/M02 A2994 RMK A01 T01001015  RH  045%=      5-min Rain = 0
KAM2 131629Z 30011KT 10/M01 A2994 RMK A01 T01011013  RH  045%=      5-min Rain = 0
KAM2 131630Z 30012KT 10/M02 A2993 RMK A01 T01021017  RH  043%=      5-min Rain = 0
KAM2 131631Z 30011KT 10/M02 A2994 RMK A01 T01001017  RH  044%=      5-min Rain = 0
KAM2 131632Z 30010KT 10/M02 A2994 RMK A01 T01011015  RH  044%=      5-min Rain = 0
KAM2 131633Z 29014KT 10/M02 A2994 RMK A01 T01011016  RH  044%=      5-min Rain = 0
KAM2 131634Z 30014KT 10/M02 A2994 RMK A01 T01011017  RH  043%=      5-min Rain = 0
KAM2 131635Z 29013KT 10/M02 A2994 RMK A01 T01031016  RH  043%=      5-min Rain = 0
KAM2 131636Z 29012KT 10/M02 A2994 RMK A01 T01041016  RH  043%=      5-min Rain = 0
KAM2 131637Z 29012KT 11/M02 A2994 RMK A01 T01051016  RH  043%=      5-min Rain = 0
KAM2 131638Z 30009KT 11/M01 A2994 RMK A01 T01061014  RH  043%=      5-min Rain = 0
KAM2 131639Z 31009KT 11/M01 A2994 RMK A01 T01081013  RH  043%=      5-min Rain = 0
KAM2 131640Z 31008KT 11/M01 A2994 RMK A01 T01091013  RH  043%=      5-min Rain = 0
KAM2 131641Z 31011KT 11/M01 A2994 RMK A01 T01101012  RH  043%=      5-min Rain = 0
KAM2 131642Z 29011KT 11/M01 A2994 RMK A01 T01101013  RH  043%=      5-min Rain = 0
KAM2 131643Z 29009KT 11/M01 A2994 RMK A01 T01101012  RH  043%=      5-min Rain = 0
KAM2 131644Z 31010KT 11/M01 A2993 RMK A01 T01111010  RH  043%=      5-min Rain = 0
KAM2 131645Z 29012KT 11/M01 A2993 RMK A01 T01121013  RH  042%=      5-min Rain = 0
KAM2 131646Z 30012KT 11/M02 A2993 RMK A01 T01121015  RH  041%=      5-min Rain = 0
KAM2 131647Z 30014KT 11/M02 A2993 RMK A01 T01111015  RH  042%=      5-min Rain = 0
KAM2 131648Z 31013KT 11/M02 A2993 RMK A01 T01091016  RH  042%=      5-min Rain = 0
KAM2 131649Z 31012KT 11/M02 A2993 RMK A01 T01081015  RH  042%=      5-min Rain = 0
KAM2 131650Z 30010KT 11/M01 A2993 RMK A01 T01081014  RH  043%=      5-min Rain = 0
KAM2 131651Z 31009KT 11/M01 A2993 RMK A01 T01101012  RH  043%=      5-min Rain = 0
KAM2 131652Z 29010KT 11/M01 A2994 RMK A01 T01121011  RH  042%=      5-min Rain = 0
KAM2 131653Z 29011KT 11/M01 A2993 RMK A01 T01131012  RH  042%=      5-min Rain = 0
KAM2 131654Z 29012KT 11/M01 A2993 RMK A01 T01131013  RH  041%=      5-min Rain = 0
KAM2 131655Z 30012KT 11/M02 A2993 RMK A01 T01131015  RH  041%=      5-min Rain = 0
KAM2 131656Z 30009KT 11/M02 A2994 RMK A01 T01121015  RH  041%=      5-min Rain = 0
KAM2 131657Z 31009KT 11/M01 A2994 RMK A01 T01121014  RH  042%=      5-min Rain = 0
KAM2 131658Z 30010KT 11/M01 A2994 RMK A01 T01141012  RH  042%=      5-min Rain = 0
KAM2 131659Z 30008KT 12/M01 A2994 RMK A01 T01151012  RH  041%=      5-min Rain = 0
KAM2 131700Z 30011KT 12/M01 A2993 RMK A01 T01161012  RH  041%=      5-min Rain = 0
KAM2 131701Z 31010KT 12/M01 A2993 RMK A01 T01171013  RH  041%=      5-min Rain = 0
KAM2 131702Z 31008KT 12/M01 A2993 RMK A01 T01181011  RH  041%=      5-min Rain = 0
KAM2 131703Z 31011KT 12/M01 A2993 RMK A01 T01201010  RH  040%=      5-min Rain = 0
KAM2 131704Z 31012KT 12/M01 A2993 RMK A01 T01211013  RH  039%=      5-min Rain = 0
KAM2 131705Z 31011KT 12/M02 A2993 RMK A01 T01201016  RH  039%=      5-min Rain = 0
KAM2 131706Z 31011KT 12/M02 A2993 RMK A01 T01191016  RH  039%=      5-min Rain = 0
KAM2 131707Z 31009KT 12/M02 A2993 RMK A01 T01191015  RH  039%=      5-min Rain = 0
KAM2 131708Z 31011KT 12/M02 A2993 RMK A01 T01201015  RH  039%=      5-min Rain = 0
KAM2 131709Z 31012KT 12/M01 A2993 RMK A01 T01201014  RH  039%=      5-min Rain = 0
KAM2 131710Z 31012KT 12/M02 A2993 RMK A01 T01211017  RH  038%=      5-min Rain = 0
KAM2 131711Z 31011KT 12/M02 A2993 RMK A01 T01221018  RH  038%=      5-min Rain = 0
KAM2 131712Z 31008KT 12/M02 A2993 RMK A01 T01221017  RH  038%=      5-min Rain = 0
KAM2 131713Z 32009KT 13/M02 A2993 RMK A01 T01251015  RH  038%=      5-min Rain = 0
KAM2 131714Z 31010KT 13/M02 A2993 RMK A01 T01261017  RH  037%=      5-min Rain = 0
KAM2 131715Z 31010KT 13/M02 A2993 RMK A01 T01271018  RH  037%=      5-min Rain = 0
KAM2 131716Z 31010KT 13/M02 A2993 RMK A01 T01271018  RH  037%=      5-min Rain = 0
KAM2 131717Z 32010KT 13/M02 A2993 RMK A01 T01271018  RH  036%=      5-min Rain = 0
KAM2 131718Z 32012KT 13/M02 A2993 RMK A01 T01281018  RH  036%=      5-min Rain = 0
KAM2 131719Z 31010KT 13/M02 A2993 RMK A01 T01281019  RH  036%=      5-min Rain = 0
KAM2 131720Z 30009KT 13/M02 A2993 RMK A01 T01281019  RH  036%=      5-min Rain = 0
KAM2 131721Z 31009KT 13/M02 A2993 RMK A01 T01291019  RH  036%=      5-min Rain = 0
KAM2 131722Z 31010KT 13/M02 A2993 RMK A01 T01301018  RH  036%=      5-min Rain = 0
KAM2 131723Z 32011KT 13/M02 A2993 RMK A01 T01311019  RH  035%=      5-min Rain = 0
KAM2 131724Z 32011KT 13/M02 A2993 RMK A01 T01311020  RH  035%=      5-min Rain = 0
KAM2 131725Z 32011KT 13/M02 A2993 RMK A01 T01301022  RH  035%=      5-min Rain = 0
KAM2 131726Z 31009KT 13/M02 A2993 RMK A01 T01281021  RH  035%=      5-min Rain = 0
KAM2 131727Z 31007KT 13/M02 A2993 RMK A01 T01281019  RH  036%=      5-min Rain = 0
KAM2 131728Z 32007KT 13/M02 A2993 RMK A01 T01301016  RH  036%=      5-min Rain = 0
KAM2 131729Z 31007KT 13/M02 A2993 RMK A01 T01331019  RH  035%=      5-min Rain = 0
KAM2 131730Z 32008KT 13/M02 A2992 RMK A01 T01341020  RH  034%=      5-min Rain = 0
KAM2 131731Z 32009KT 14/M02 A2992 RMK A01 T01351020  RH  034%=      5-min Rain = 0
KAM2 131732Z 31010KT 14/M02 A2992 RMK A01 T01361021  RH  034%=      5-min Rain = 0
KAM2 131733Z 31011KT 14/M02 A2992 RMK A01 T01371022  RH  033%=      5-min Rain = 0
KAM2 131734Z 30008KT 14/M02 A2993 RMK A01 T01371023  RH  033%=      5-min Rain = 0
KAM2 131735Z 31010KT 14/M02 A2993 RMK A01 T01391018  RH  034%=      5-min Rain = 0
KAM2 131736Z 31013KT 14/M02 A2993 RMK A01 T01411020  RH  033%=      5-min Rain = 0
KAM2 131737Z 31012KT 14/M02 A2993 RMK A01 T01401024  RH  032%=      5-min Rain = 0
KAM2 131738Z 31011KT 14/M02 A2993 RMK A01 T01381023  RH  033%=      5-min Rain = 0
KAM2 131739Z 32011KT 14/M02 A2992 RMK A01 T01381022  RH  033%=      5-min Rain = 0
KAM2 131740Z 32009KT 14/M02 A2992 RMK A01 T01391022  RH  033%=      5-min Rain = 0
KAM2 131741Z 32010KT 14/M02 A2992 RMK A01 T01401022  RH  033%=      5-min Rain = 0
KAM2 131742Z 32009KT 14/M02 A2992 RMK A01 T01401021  RH  033%=      5-min Rain = 0
KAM2 131743Z 32010KT 14/M02 A2992 RMK A01 T01411021  RH  033%=      5-min Rain = 0
KAM2 131744Z 32007KT 14/M02 A2992 RMK A01 T01421022  RH  032%=      5-min Rain = 0
KAM2 131745Z 31010KT 14/M02 A2992 RMK A01 T01431021  RH  032%=      5-min Rain = 0
KAM2 131746Z 30011KT 14/M02 A2992 RMK A01 T01431023  RH  032%=      5-min Rain = 0
KAM2 131747Z 30011KT 14/M02 A2992 RMK A01 T01421023  RH  032%=      5-min Rain = 0
KAM2 131748Z 30011KT 14/M02 A2992 RMK A01 T01411022  RH  032%=      5-min Rain = 0
KAM2 131749Z 31010KT 14/M02 A2991 RMK A01 T01411022  RH  032%=      5-min Rain = 0
KAM2 131750Z 31008KT 14/M02 A2991 RMK A01 T01401023  RH  032%=      5-min Rain = 0
KAM2 131751Z 32009KT 14/M02 A2991 RMK A01 T01401023  RH  032%=      5-min Rain = 0
KAM2 131752Z 30011KT 14/M02 A2991 RMK A01 T01401022  RH  033%=      5-min Rain = 0
KAM2 131753Z 30011KT 14/M02 A2991 RMK A01 T01421022  RH  032%=      5-min Rain = 0
KAM2 131754Z 31013KT 14/M02 A2991 RMK A01 T01411023  RH  032%=      5-min Rain = 0
KAM2 131755Z 32012KT 14/M02 A2991 RMK A01 T01401024  RH  032%=      5-min Rain = 0
KAM2 131756Z 31011KT 14/M02 A2991 RMK A01 T01381024  RH  032%=      5-min Rain = 0
KAM2 131757Z 33010KT 14/M02 A2991 RMK A01 T01371024  RH  033%=      5-min Rain = 0
KAM2 131758Z 34009KT 14/M02 A2991 RMK A01 T01381023  RH  033%=      5-min Rain = 0
KAM2 131759Z 35010KT 14/M02 A2991 RMK A01 T01381023  RH  033%=      5-min Rain = 0
KAM2 131800Z 34009KT 14/M02 A2991 RMK A01 T01391021  RH  033%=      5-min Rain = 0
KAM2 131801Z 34009KT 14/M02 A2991 RMK A01 T01411020  RH  033%=      5-min Rain = 0
KAM2 131802Z 33008KT 14/M02 A2991 RMK A01 T01421020  RH  033%=      5-min Rain = 0
KAM2 131803Z 31009KT 14/M02 A2991 RMK A01 T01431022  RH  032%=      5-min Rain = 0
KAM2 131804Z 31009KT 14/M02 A299 RMK A01 T01431022  RH  032%=      5-min Rain = 0
KAM2 131805Z 33011KT 14/M02 A2991 RMK A01 T01441021  RH  032%=      5-min Rain = 0
KAM2 131806Z 35008KT 14/M02 A2991 RMK A01 T01441022  RH  032%=      5-min Rain = 0
KAM2 131807Z 33008KT 14/M02 A2991 RMK A01 T01421022  RH  032%=      5-min Rain = 0
KAM2 131808Z 32008KT 14/M02 A299 RMK A01 T01431020  RH  032%=      5-min Rain = 0
KAM2 131809Z 31011KT 15/M02 A299 RMK A01 T01461018  RH  032%=      5-min Rain = 0
KAM2 131810Z 32009KT 15/M02 A299 RMK A01 T01481019  RH  032%=      5-min Rain = 0
KAM2 131811Z 33010KT 15/M02 A299 RMK A01 T01481020  RH  031%=      5-min Rain = 0
KAM2 131812Z 32007KT 15/M02 A299 RMK A01 T01481020  RH  031%=      5-min Rain = 0
KAM2 131813Z 31010KT 15/M02 A299 RMK A01 T01491019  RH  031%=      5-min Rain = 0
KAM2 131814Z 31010KT 15/M02 A299 RMK A01 T01501021  RH  031%=      5-min Rain = 0
KAM2 131815Z 30010KT 15/M02 A2989 RMK A01 T01481022  RH  031%=      5-min Rain = 0
KAM2 131816Z 31008KT 15/M02 A2989 RMK A01 T01471021  RH  031%=      5-min Rain = 0
KAM2 131817Z 32009KT 15/M02 A299 RMK A01 T01471020  RH  032%=      5-min Rain = 0
KAM2 131818Z 32007KT 15/M02 A299 RMK A01 T01481021  RH  031%=      5-min Rain = 0
KAM2 131819Z 34007KT 15/M02 A2989 RMK A01 T01501019  RH  031%=      5-min Rain = 0
KAM2 131820Z 33007KT 15/M02 A2989 RMK A01 T01501020  RH  031%=      5-min Rain = 0
KAM2 131821Z 33007KT 15/M02 A2989 RMK A01 T01511021  RH  030%=      5-min Rain = 0
KAM2 131822Z 33008KT 15/M02 A2989 RMK A01 T01511024  RH  030%=      5-min Rain = 0
KAM2 131823Z 34013KT 15/M02 A2989 RMK A01 T01511024  RH  030%=      5-min Rain = 0
KAM2 131824Z 32012KT 15/M03 A2989 RMK A01 T01511025  RH  030%=      5-min Rain = 0
KAM2 131825Z 34008KT 15/M03 A2989 RMK A01 T01511025  RH  030%=      5-min Rain = 0
KAM2 131826Z 34007KT 15/M02 A2989 RMK A01 T01511024  RH  030%=      5-min Rain = 0
KAM2 131827Z 35006KT 15/M03 A2989 RMK A01 T01511026  RH  029%=      5-min Rain = 0
KAM2 131828Z 35005KT 15/M02 A2989 RMK A01 T01511024  RH  030%=      5-min Rain = 0
KAM2 131829Z 35004KT 16/M02 A2989 RMK A01 T01551021  RH  030%=      5-min Rain = 0
KAM2 131830Z 33004KT 16/M02 A2989 RMK A01 T01571023  RH  029%=      5-min Rain = 0
KAM2 131831Z 33007KT 16/M02 A2989 RMK A01 T01571022  RH  029%=      5-min Rain = 0
KAM2 131832Z 34009KT 16/M02 A2989 RMK A01 T01581022  RH  029%=      5-min Rain = 0
KAM2 131833Z 34010G15KT 16/M02 A2989 RMK A01 T01581023  RH  029%=      5-min Rain = 0
KAM2 131834Z 35011KT 16/M02 A2989 RMK A01 T01581024  RH  029%=      5-min Rain = 0
KAM2 131835Z 35008KT 16/M03 A2989 RMK A01 T01551025  RH  029%=      5-min Rain = 0
KAM2 131836Z 33006KT 16/M02 A2989 RMK A01 T01561021  RH  029%=      5-min Rain = 0
KAM2 131837Z 33011KT 16/M02 A2989 RMK A01 T01601021  RH  029%=      5-min Rain = 0
KAM2 131838Z 34011KT 16/M02 A2989 RMK A01 T01591024  RH  028%=      5-min Rain = 0
KAM2 131839Z 34009KT 16/M03 A2989 RMK A01 T01571026  RH  028%=      5-min Rain = 0
KAM2 131840Z 32009KT 16/M03 A2988 RMK A01 T01561025  RH  029%=      5-min Rain = 0
KAM2 131841Z 31007KT 16/M03 A2989 RMK A01 T01561025  RH  029%=      5-min Rain = 0
KAM2 131842Z 30007KT 16/M02 A2989 RMK A01 T01571022  RH  029%=      5-min Rain = 0
KAM2 131843Z 30009KT 16/M02 A2989 RMK A01 T01601021  RH  029%=      5-min Rain = 0
KAM2 131844Z 31011KT 16/M02 A2989 RMK A01 T01621022  RH  028%=      5-min Rain = 0
KAM2 131845Z 31007G12KT 16/M02 A2989 RMK A01 T01621022  RH  028%=      5-min Rain = 0
KAM2 131846Z 31010KT 16/M02 A2988 RMK A01 T01631022  RH  028%=      5-min Rain = 0
KAM2 131847Z 32010KT 16/M02 A2988 RMK A01 T01641024  RH  028%=      5-min Rain = 0
KAM2 131848Z 31007KT 16/M03 A2988 RMK A01 T01621025  RH  028%=      5-min Rain = 0
KAM2 131849Z 33009KT 16/M02 A2988 RMK A01 T01621024  RH  028%=      5-min Rain = 0
KAM2 131850Z 34009KT 16/M02 A2988 RMK A01 T01621024  RH  028%=      5-min Rain = 0
KAM2 131851Z 31008KT 16/M03 A2988 RMK A01 T01611025  RH  028%=      5-min Rain = 0
KAM2 131852Z 30009KT 16/M03 A2988 RMK A01 T01631025  RH  028%=      5-min Rain = 0
KAM2 131853Z 31007KT 16/M03 A2987 RMK A01 T01631027  RH  027%=      5-min Rain = 0
KAM2 131854Z 31010KT 16/M03 A2987 RMK A01 T01631026  RH  027%=      5-min Rain = 0
KAM2 131855Z 30009KT 16/M03 A2987 RMK A01 T01621027  RH  027%=      5-min Rain = 0
KAM2 131856Z 31006KT 16/M03 A2987 RMK A01 T01621027  RH  027%=      5-min Rain = 0
KAM2 131857Z 33009KT 16/M03 A2987 RMK A01 T01631029  RH  027%=      5-min Rain = 0
KAM2 131858Z 30008KT 17/M03 A2987 RMK A01 T01661030  RH  026%=      5-min Rain = 0
KAM2 131859Z 30009KT 17/M03 A2987 RMK A01 T01671032  RH  025%=      5-min Rain = 0
KAM2 131900Z 33011KT 17/M03 A2987 RMK A01 T01671033  RH  025%=      5-min Rain = 0
KAM2 131901Z 33011KT 17/M04 A2987 RMK A01 T01671035  RH  025%=      5-min Rain = 0
KAM2 131902Z 32009KT 17/M04 A2987 RMK A01 T01651037  RH  025%=      5-min Rain = 0
KAM2 131903Z 33010KT 16/M04 A2987 RMK A01 T01641037  RH  025%=      5-min Rain = 0
KAM2 131904Z 33010KT 16/M04 A2988 RMK A01 T01631038  RH  025%=      5-min Rain = 0
KAM2 131905Z 32009KT 16/M04 A2988 RMK A01 T01621038  RH  025%=      5-min Rain = 0
KAM2 131906Z 33008KT 16/M04 A2988 RMK A01 T01611037  RH  026%=      5-min Rain = 0
KAM2 131907Z 33008KT 16/M03 A2988 RMK A01 T01631034  RH  026%=      5-min Rain = 0
KAM2 131908Z 31006KT 17/M04 A2988 RMK A01 T01651035  RH  025%=      5-min Rain = 0
KAM2 131909Z 32007KT 17/M03 A2987 RMK A01 T01661034  RH  025%=      5-min Rain = 0
KAM2 131910Z 34012G17KT 17/M03 A2987 RMK A01 T01681034  RH  025%=      5-min Rain = 0
KAM2 131911Z 34012KT 17/M04 A2988 RMK A01 T01681036  RH  024%=      5-min Rain = 0
KAM2 131912Z 35010KT 17/M04 A2987 RMK A01 T01661037  RH  025%=      5-min Rain = 0
KAM2 131913Z 34008KT 16/M04 A2987 RMK A01 T01641038  RH  025%=      5-min Rain = 0
KAM2 131914Z 34008G13KT 16/M04 A2987 RMK A01 T01641036  RH  025%=      5-min Rain = 0
KAM2 131915Z 33007KT 17/M03 A2987 RMK A01 T01661034  RH  025%=      5-min Rain = 0
KAM2 131916Z 33006KT 17/M04 A2987 RMK A01 T01661035  RH  025%=      5-min Rain = 0
KAM2 131917Z 33005KT 17/M04 A2987 RMK A01 T01661035  RH  025%=      5-min Rain = 0
KAM2 131918Z 33005KT 17/M04 A2987 RMK A01 T01661036  RH  025%=      5-min Rain = 0
KAM2 131919Z 31006KT 17/M04 A2987 RMK A01 T01651036  RH  025%=      5-min Rain = 0
KAM2 131920Z 32007KT 17/M03 A2987 RMK A01 T01661034  RH  025%=      5-min Rain = 0
KAM2 131921Z 30008KT 17/M03 A2987 RMK A01 T01681034  RH  025%=      5-min Rain = 0
KAM2 131922Z 33007KT 17/M03 A2987 RMK A01 T01671034  RH  025%=      5-min Rain = 0
KAM2 131923Z 35010KT 17/M03 A2987 RMK A01 T01661033  RH  025%=      5-min Rain = 0
KAM2 131924Z 34010KT 17/M03 A2987 RMK A01 T01661032  RH  026%=      5-min Rain = 0
KAM2 131925Z 34007KT 17/M04 A2987 RMK A01 T01661035  RH  025%=      5-min Rain = 0
KAM2 131926Z 34011KT 17/M04 A2987 RMK A01 T01651035  RH  025%=      5-min Rain = 0
KAM2 131927Z 34010KT 17/M03 A2986 RMK A01 T01661034  RH  025%=      5-min Rain = 0
KAM2 131928Z 34010KT 17/M03 A2986 RMK A01 T01681032  RH  025%=      5-min Rain = 0
KAM2 131929Z 34009KT 17/M03 A2986 RMK A01 T01681033  RH  025%=      5-min Rain = 0
KAM2 131930Z 35009KT 17/M03 A2986 RMK A01 T01671033  RH  025%=      5-min Rain = 0
KAM2 131931Z 35006KT 17/M03 A2986 RMK A01 T01661034  RH  025%=      5-min Rain = 0
KAM2 131932Z 36008KT 16/M03 A2986 RMK A01 T01641034  RH  026%=      5-min Rain = 0
KAM2 131933Z 35006KT 16/M03 A2986 RMK A01 T01641033  RH  026%=      5-min Rain = 0
KAM2 131934Z 36005KT 16/M03 A2986 RMK A01 T01641033  RH  026%=      5-min Rain = 0
KAM2 131935Z 34003KT 16/M03 A2986 RMK A01 T01641032  RH  026%=      5-min Rain = 0
KAM2 131936Z 31004KT 17/M03 A2986 RMK A01 T01651032  RH  026%=      5-min Rain = 0
KAM2 131937Z 33005KT 17/M03 A2986 RMK A01 T01661032  RH  026%=      5-min Rain = 0
KAM2 131938Z 35008KT 17/M03 A2986 RMK A01 T01681030  RH  026%=      5-min Rain = 0
KAM2 131939Z 00009KT 17/M03 A2986 RMK A01 T01681031  RH  025%=      5-min Rain = 0
KAM2 131940Z 00009KT 17/M03 A2986 RMK A01 T01681031  RH  025%=      5-min Rain = 0
KAM2 131941Z 35006G11KT 17/M03 A2986 RMK A01 T01661032  RH  026%=      5-min Rain = 0
KAM2 131942Z 35009KT 17/M03 A2986 RMK A01 T01691029  RH  026%=      5-min Rain = 0
KAM2 131943Z 33010KT 17/M03 A2986 RMK A01 T01701031  RH  025%=      5-min Rain = 0
KAM2 131944Z 34008KT 17/M03 A2986 RMK A01 T01681033  RH  025%=      5-min Rain = 0
KAM2 131945Z 33006KT 17/M03 A2986 RMK A01 T01671032  RH  025%=      5-min Rain = 0
KAM2 131946Z 33006KT 17/M03 A2986 RMK A01 T01671032  RH  026%=      5-min Rain = 0
KAM2 131947Z 33006KT 17/M03 A2986 RMK A01 T01671031  RH  026%=      5-min Rain = 0
KAM2 131948Z 34004KT 17/M03 A2986 RMK A01 T01671031  RH  026%=      5-min Rain = 0
KAM2 131949Z 35006KT 17/M03 A2986 RMK A01 T01691030  RH  026%=      5-min Rain = 0
KAM2 131950Z 34006KT 17/M03 A2986 RMK A01 T01701029  RH  025%=      5-min Rain = 0
KAM2 131951Z 33008KT 17/M03 A2986 RMK A01 T01721030  RH  025%=      5-min Rain = 0
KAM2 131952Z 32009KT 17/M03 A2986 RMK A01 T01721031  RH  025%=      5-min Rain = 0
KAM2 131953Z 00007KT 17/M03 A2986 RMK A01 T01721030  RH  025%=      5-min Rain = 0
KAM2 131954Z 35007KT 17/M03 A2986 RMK A01 T01711032  RH  025%=      5-min Rain = 0
KAM2 131955Z 34008KT 17/M03 A2986 RMK A01 T01701031  RH  025%=      5-min Rain = 0
KAM2 131956Z 33006KT 17/M03 A2986 RMK A01 T01701031  RH  025%=      5-min Rain = 0
KAM2 131957Z 32006G12KT 17/M03 A2986 RMK A01 T01701031  RH  025%=      5-min Rain = 0
KAM2 131958Z 33009KT 17/M03 A2986 RMK A01 T01711029  RH  025%=      5-min Rain = 0
KAM2 131959Z 32009KT 17/M03 A2986 RMK A01 T01721031  RH  025%=      5-min Rain = 0
KAM2 132000Z 33007KT 17/M03 A2986 RMK A01 T01711031  RH  025%=      5-min Rain = 0
KAM2 132001Z 34008KT 17/M03 A2986 RMK A01 T01711031  RH  025%=      5-min Rain = 0
KAM2 132002Z 33006KT 17/M03 A2986 RMK A01 T01701031  RH  025%=      5-min Rain = 0
KAM2 132003Z 34004KT 17/M03 A2986 RMK A01 T01701030  RH  025%=      5-min Rain = 0
KAM2 132004Z 35009KT 17/M03 A2986 RMK A01 T01721029  RH  025%=      5-min Rain = 0
KAM2 132005Z 34011KT 17/M03 A2986 RMK A01 T01711032  RH  025%=      5-min Rain = 0
KAM2 132006Z 33010KT 17/M03 A2985 RMK A01 T01701033  RH  025%=      5-min Rain = 0
KAM2 132007Z 33007KT 17/M03 A2985 RMK A01 T01691034  RH  025%=      5-min Rain = 0
KAM2 132008Z 32006KT 17/M03 A2985 RMK A01 T01681034  RH  025%=      5-min Rain = 0
KAM2 132009Z 34005KT 17/M03 A2985 RMK A01 T01671034  RH  025%=      5-min Rain = 0
KAM2 132010Z 00009KT 17/M03 A2985 RMK A01 T01671033  RH  025%=      5-min Rain = 0
KAM2 132011Z 00008KT 17/M03 A2985 RMK A01 T01691031  RH  025%=      5-min Rain = 0
KAM2 132012Z 36007KT 17/M03 A2985 RMK A01 T01711033  RH  025%=      5-min Rain = 0
KAM2 132013Z 00005KT 17/M03 A2985 RMK A01 T01701033  RH  025%=      5-min Rain = 0
KAM2 132014Z 00006KT 17/M03 A2985 RMK A01 T01711032  RH  025%=      5-min Rain = 0
KAM2 132015Z 01007KT 17/M03 A2985 RMK A01 T01711034  RH  024%=      5-min Rain = 0
KAM2 132016Z 34007KT 17/M03 A2985 RMK A01 T01701034  RH  025%=      5-min Rain = 0
KAM2 132017Z 33010KT 17/M03 A2985 RMK A01 T01711034  RH  024%=      5-min Rain = 0
KAM2 132018Z 33008KT 17/M04 A2985 RMK A01 T01711035  RH  024%=      5-min Rain = 0
KAM2 132019Z 34008KT 17/M03 A2985 RMK A01 T01721034  RH  024%=      5-min Rain = 0
KAM2 132020Z 34006KT 17/M03 A2985 RMK A01 T01731034  RH  024%=      5-min Rain = 0
KAM2 132021Z 33007KT 17/M03 A2985 RMK A01 T01741033  RH  024%=      5-min Rain = 0
KAM2 132022Z 32007KT 18/M03 A2985 RMK A01 T01751034  RH  024%=      5-min Rain = 0
KAM2 132023Z 32009KT 18/M04 A2985 RMK A01 T01751035  RH  024%=      5-min Rain = 0
KAM2 132024Z 30006KT 17/M04 A2985 RMK A01 T01731036  RH  024%=      5-min Rain = 0
KAM2 132025Z 34008KT 17/M03 A2985 RMK A01 T01731034  RH  024%=      5-min Rain = 0
KAM2 132026Z 01009KT 17/M04 A2985 RMK A01 T01741035  RH  024%=      5-min Rain = 0
KAM2 132027Z 01007KT 17/M04 A2985 RMK A01 T01731036  RH  024%=      5-min Rain = 0
KAM2 132028Z 35008KT 17/M04 A2985 RMK A01 T01731036  RH  024%=      5-min Rain = 0
KAM2 132029Z 34007KT 17/M04 A2985 RMK A01 T01711036  RH  024%=      5-min Rain = 0
KAM2 132030Z 33006KT 17/M04 A2985 RMK A01 T01721035  RH  024%=      5-min Rain = 0
KAM2 132031Z 34006KT 17/M04 A2985 RMK A01 T01721036  RH  024%=      5-min Rain = 0
KAM2 132032Z 35007KT 17/M04 A2985 RMK A01 T01711036  RH  024%=      5-min Rain = 0
KAM2 132033Z 34007KT 17/M04 A2985 RMK A01 T01701036  RH  024%=      5-min Rain = 0
KAM2 132034Z 35009KT 17/M04 A2985 RMK A01 T01681037  RH  024%=      5-min Rain = 0
KAM2 132035Z 34007KT 17/M04 A2985 RMK A01 T01681036  RH  024%=      5-min Rain = 0
KAM2 132036Z 00007KT 17/M04 A2985 RMK A01 T01691036  RH  024%=      5-min Rain = 0
KAM2 132037Z 35007KT 17/M03 A2985 RMK A01 T01711034  RH  025%=      5-min Rain = 0
KAM2 132038Z 35008KT 17/M03 A2985 RMK A01 T01731033  RH  024%=      5-min Rain = 0
KAM2 132039Z 01007KT 17/M03 A2985 RMK A01 T01731034  RH  024%=      5-min Rain = 0
KAM2 132040Z 02007KT 17/M04 A2985 RMK A01 T01731035  RH  024%=      5-min Rain = 0
KAM2 132041Z 02008KT 17/M04 A2984 RMK A01 T01731035  RH  024%=      5-min Rain = 0
KAM2 132042Z 01010KT 17/M03 A2984 RMK A01 T01731034  RH  024%=      5-min Rain = 0
KAM2 132043Z 35010KT 17/M03 A2984 RMK A01 T01731034  RH  024%=      5-min Rain = 0
KAM2 132044Z 34008KT 17/M04 A2984 RMK A01 T01731035  RH  024%=      5-min Rain = 0
KAM2 132045Z 33008KT 17/M04 A2984 RMK A01 T01721036  RH  024%=      5-min Rain = 0
KAM2 132046Z 34005KT 17/M04 A2984 RMK A01 T01721035  RH  024%=      5-min Rain = 0
KAM2 132047Z 33008KT 17/M03 A2985 RMK A01 T01731034  RH  024%=      5-min Rain = 0
KAM2 132048Z 34006KT 17/M04 A2985 RMK A01 T01741035  RH  024%=      5-min Rain = 0
KAM2 132049Z 33003KT 17/M04 A2985 RMK A01 T01731035  RH  024%=      5-min Rain = 0
KAM2 132050Z 32005KT 17/M03 A2985 RMK A01 T01741034  RH  024%=      5-min Rain = 0
KAM2 132051Z 35006KT 18/M03 A2985 RMK A01 T01751034  RH  024%=      5-min Rain = 0
KAM2 132052Z 36007KT 18/M03 A2984 RMK A01 T01761034  RH  024%=      5-min Rain = 0
KAM2 132053Z 34004KT 18/M04 A2984 RMK A01 T01751035  RH  024%=      5-min Rain = 0
KAM2 132054Z 34006KT 18/M03 A2984 RMK A01 T01751034  RH  024%=      5-min Rain = 0
KAM2 132055Z 33007KT 18/M03 A2984 RMK A01 T01761034  RH  024%=      5-min Rain = 0
KAM2 132056Z 34008KT 18/M03 A2984 RMK A01 T01771034  RH  024%=      5-min Rain = 0
KAM2 132057Z 33007KT 18/M04 A2984 RMK A01 T01771035  RH  023%=      5-min Rain = 0
KAM2 132058Z 33006KT 18/M04 A2984 RMK A01 T01751036  RH  023%=      5-min Rain = 0
KAM2 132059Z 34004KT 17/M04 A2984 RMK A01 T01741037  RH  023%=      5-min Rain = 0
KAM2 132100Z 36004KT 17/M04 A2984 RMK A01 T01741036  RH  024%=      5-min Rain = 0
KAM2 132101Z 32003KT 17/M04 A2984 RMK A01 T01741036  RH  024%=      5-min Rain = 0
KAM2 132102Z 32003KT 17/M03 A2984 RMK A01 T01741034  RH  024%=      5-min Rain = 0
KAM2 132103Z 01004KT 18/M03 A2984 RMK A01 T01761034  RH  024%=      5-min Rain = 0
KAM2 132104Z 01004KT 18/M04 A2984 RMK A01 T01761036  RH  023%=      5-min Rain = 0
KAM2 132105Z 02003KT 17/M04 A2984 RMK A01 T01741037  RH  023%=      5-min Rain = 0
KAM2 132106Z 01002KT 17/M04 A2984 RMK A01 T01731036  RH  024%=      5-min Rain = 0
KAM2 132107Z 36007KT 17/M04 A2984 RMK A01 T01731036  RH  024%=      5-min Rain = 0
KAM2 132108Z 00009KT 17/M04 A2984 RMK A01 T01741036  RH  024%=      5-min Rain = 0
KAM2 132109Z 01007KT 17/M04 A2984 RMK A01 T01741037  RH  023%=      5-min Rain = 0
KAM2 132110Z 36005KT 17/M04 A2984 RMK A01 T01731036  RH  024%=      5-min Rain = 0
KAM2 132111Z 00004KT 17/M04 A2984 RMK A01 T01741035  RH  024%=      5-min Rain = 0
KAM2 132112Z 35008KT 18/M04 A2984 RMK A01 T01751036  RH  024%=      5-min Rain = 0
KAM2 132113Z 36009KT 18/M04 A2984 RMK A01 T01751036  RH  024%=      5-min Rain = 0
KAM2 132114Z 35007KT 18/M04 A2984 RMK A01 T01751036  RH  024%=      5-min Rain = 0
KAM2 132115Z 34005KT 17/M04 A2984 RMK A01 T01741036  RH  024%=      5-min Rain = 0
KAM2 132116Z 33006KT 18/M04 A2984 RMK A01 T01751035  RH  024%=      5-min Rain = 0
KAM2 132117Z 35005KT 18/M04 A2984 RMK A01 T01761035  RH  023%=      5-min Rain = 0
KAM2 132118Z 02007KT 18/M04 A2984 RMK A01 T01751035  RH  024%=      5-min Rain = 0
KAM2 132119Z 01006KT 17/M04 A2984 RMK A01 T01741036  RH  023%=      5-min Rain = 0
KAM2 132120Z 01005KT 17/M04 A2984 RMK A01 T01741035  RH  024%=      5-min Rain = 0
KAM2 132121Z 35005KT 18/M03 A2984 RMK A01 T01751034  RH  024%=      5-min Rain = 0
KAM2 132122Z 34005KT 18/M04 A2984 RMK A01 T01771035  RH  023%=      5-min Rain = 0
KAM2 132123Z 36006KT 18/M04 A2984 RMK A01 T01761035  RH  023%=      5-min Rain = 0
KAM2 132124Z 35007KT 18/M03 A2984 RMK A01 T01771034  RH  024%=      5-min Rain = 0
KAM2 132125Z 36006KT 18/M04 A2984 RMK A01 T01771036  RH  023%=      5-min Rain = 0
KAM2 132126Z 00006KT 18/M04 A2984 RMK A01 T01761035  RH  023%=      5-min Rain = 0
KAM2 132127Z 35007KT 18/M04 A2984 RMK A01 T01751036  RH  023%=      5-min Rain = 0
KAM2 132128Z 35006KT 17/M04 A2984 RMK A01 T01741037  RH  023%=      5-min Rain = 0
KAM2 132129Z 36004KT 17/M04 A2984 RMK A01 T01721038  RH  024%=      5-min Rain = 0
KAM2 132130Z 03005KT 17/M04 A2985 RMK A01 T01721036  RH  024%=      5-min Rain = 0
KAM2 132131Z 03006KT 17/M04 A2985 RMK A01 T01721036  RH  024%=      5-min Rain = 0
KAM2 132132Z 02006KT 17/M04 A2985 RMK A01 T01731035  RH  024%=      5-min Rain = 0
KAM2 132133Z 00006KT 17/M04 A2985 RMK A01 T01721036  RH  024%=      5-min Rain = 0
KAM2 132134Z 00005KT 17/M04 A2985 RMK A01 T01731036  RH  024%=      5-min Rain = 0
KAM2 132135Z 01004KT 17/M04 A2985 RMK A01 T01731036  RH  024%=      5-min Rain = 0
KAM2 132136Z 01008KT 17/M04 A2985 RMK A01 T01731035  RH  024%=      5-min Rain = 0
KAM2 132137Z 02007KT 17/M04 A2985 RMK A01 T01731036  RH  024%=      5-min Rain = 0
KAM2 132138Z 01007KT 17/M03 A2985 RMK A01 T01731034  RH  024%=      5-min Rain = 0
KAM2 132139Z 02008KT 17/M04 A2985 RMK A01 T01721035  RH  024%=      5-min Rain = 0
KAM2 132140Z 02007KT 17/M04 A2984 RMK A01 T01721036  RH  024%=      5-min Rain = 0
KAM2 132141Z 03008KT 17/M04 A2984 RMK A01 T01701037  RH  024%=      5-min Rain = 0
KAM2 132142Z 02008KT 17/M04 A2984 RMK A01 T01691037  RH  024%=      5-min Rain = 0
KAM2 132143Z 01007KT 17/M04 A2984 RMK A01 T01681036  RH  024%=      5-min Rain = 0
KAM2 132144Z 01007KT 17/M04 A2984 RMK A01 T01681036  RH  024%=      5-min Rain = 0
KAM2 132145Z 01006KT 17/M04 A2984 RMK A01 T01691036  RH  024%=      5-min Rain = 0
KAM2 132146Z 01006KT 17/M04 A2985 RMK A01 T01701035  RH  024%=      5-min Rain = 0
KAM2 132147Z 02008KT 17/M04 A2985 RMK A01 T01711035  RH  024%=      5-min Rain = 0
KAM2 132148Z 01008KT 17/M04 A2985 RMK A01 T01711035  RH  024%=      5-min Rain = 0
KAM2 132149Z 03008KT 17/M04 A2985 RMK A01 T01701035  RH  024%=      5-min Rain = 0
KAM2 132150Z 03006KT 17/M04 A2985 RMK A01 T01681037  RH  024%=      5-min Rain = 0
KAM2 132151Z 02006KT 17/M04 A2985 RMK A01 T01671037  RH  024%=      5-min Rain = 0
KAM2 132152Z 03004KT 17/M04 A2985 RMK A01 T01661038  RH  024%=      5-min Rain = 0
KAM2 132153Z 04004KT 17/M04 A2985 RMK A01 T01661037  RH  025%=      5-min Rain = 0
KAM2 132154Z 04006KT 17/M04 A2985 RMK A01 T01661036  RH  025%=      5-min Rain = 0
KAM2 132155Z 02006KT 17/M04 A2985 RMK A01 T01671036  RH  025%=      5-min Rain = 0
KAM2 132156Z 36005KT 17/M04 A2985 RMK A01 T01671036  RH  025%=      5-min Rain = 0
KAM2 132157Z 01005KT 17/M04 A2985 RMK A01 T01681036  RH  025%=      5-min Rain = 0
KAM2 132158Z 02005KT 17/M04 A2985 RMK A01 T01681037  RH  024%=      5-min Rain = 0
KAM2 132159Z 01006KT 17/M04 A2985 RMK A01 T01671038  RH  024%=      5-min Rain = 0
KAM2 132200Z 36007KT 17/M04 A2985 RMK A01 T01671037  RH  025%=      5-min Rain = 0
KAM2 132201Z 35004KT 17/M04 A2985 RMK A01 T01671037  RH  025%=      5-min Rain = 0
KAM2 132202Z 00004KT 17/M04 A2985 RMK A01 T01661037  RH  025%=      5-min Rain = 0
KAM2 132203Z 02004KT 17/M04 A2985 RMK A01 T01671037  RH  025%=      5-min Rain = 0
KAM2 132204Z 03004KT 17/M04 A2985 RMK A01 T01671037  RH  024%=      5-min Rain = 0
KAM2 132205Z 03004KT 17/M04 A2985 RMK A01 T01671037  RH  025%=      5-min Rain = 0
KAM2 132206Z 03005KT 17/M04 A2985 RMK A01 T01671036  RH  025%=      5-min Rain = 0
KAM2 132207Z 02006KT 17/M04 A2985 RMK A01 T01671036  RH  025%=      5-min Rain = 0
KAM2 132208Z 01006KT 17/M04 A2985 RMK A01 T01661037  RH  025%=      5-min Rain = 0
KAM2 132209Z 02004KT 17/M04 A2985 RMK A01 T01651037  RH  025%=      5-min Rain = 0
KAM2 132210Z 02005KT 17/M04 A2985 RMK A01 T01651036  RH  025%=      5-min Rain = 0
KAM2 132211Z 02007KT 17/M04 A2985 RMK A01 T01651036  RH  025%=      5-min Rain = 0
KAM2 132212Z 03007KT 17/M04 A2985 RMK A01 T01651036  RH  025%=      5-min Rain = 0
KAM2 132213Z 03008KT 16/M04 A2985 RMK A01 T01641036  RH  025%=      5-min Rain = 0
KAM2 132214Z 04008KT 16/M04 A2985 RMK A01 T01631035  RH  026%=      5-min Rain = 0
KAM2 132215Z 04008KT 16/M03 A2985 RMK A01 T01631033  RH  026%=      5-min Rain = 0
KAM2 132216Z 04006KT 16/M03 A2985 RMK A01 T01631034  RH  026%=      5-min Rain = 0
KAM2 132217Z 02007KT 16/M03 A2986 RMK A01 T01631034  RH  026%=      5-min Rain = 0
KAM2 132218Z 03006KT 16/M03 A2986 RMK A01 T01631034  RH  026%=      5-min Rain = 0
KAM2 132219Z 04007KT 16/M04 A2986 RMK A01 T01621035  RH  026%=      5-min Rain = 0
KAM2 132220Z 04007KT 16/M04 A2986 RMK A01 T01621035  RH  026%=      5-min Rain = 0
KAM2 132221Z 03005KT 16/M04 A2986 RMK A01 T01611035  RH  026%=      5-min Rain = 0
KAM2 132222Z 04005KT 16/M04 A2986 RMK A01 T01611035  RH  026%=      5-min Rain = 0
KAM2 132223Z 03007KT 16/M04 A2986 RMK A01 T01611035  RH  026%=      5-min Rain = 0
KAM2 132224Z 03006KT 16/M04 A2987 RMK A01 T01611035  RH  026%=      5-min Rain = 0
KAM2 132225Z 03007KT 16/M04 A2987 RMK A01 T01611035  RH  026%=      5-min Rain = 0
KAM2 132226Z 03005KT 16/M03 A2987 RMK A01 T01611034  RH  026%=      5-min Rain = 0
KAM2 132227Z 02005KT 16/M03 A2987 RMK A01 T01611033  RH  026%=      5-min Rain = 0
KAM2 132228Z 02006KT 16/M03 A2987 RMK A01 T01601034  RH  026%=      5-min Rain = 0
KAM2 132229Z 02005KT 16/M04 A2987 RMK A01 T01601035  RH  026%=      5-min Rain = 0
KAM2 132230Z 04005KT 16/M03 A2987 RMK A01 T01601034  RH  026%=      5-min Rain = 0
KAM2 132231Z 05005KT 16/M03 A2987 RMK A01 T01601034  RH  026%=      5-min Rain = 0
KAM2 132232Z 04006KT 16/M04 A2987 RMK A01 T01601035  RH  026%=      5-min Rain = 0
KAM2 132233Z 04006KT 16/M04 A2986 RMK A01 T01591035  RH  026%=      5-min Rain = 0
KAM2 132234Z 05005KT 16/M04 A2986 RMK A01 T01591036  RH  026%=      5-min Rain = 0
KAM2 132235Z 05006KT 16/M04 A2986 RMK A01 T01581035  RH  026%=      5-min Rain = 0
KAM2 132236Z 04006KT 16/M03 A2986 RMK A01 T01581034  RH  026%=      5-min Rain = 0
KAM2 132237Z 05007KT 16/M03 A2986 RMK A01 T01581034  RH  027%=      5-min Rain = 0
KAM2 132238Z 05006KT 16/M03 A2986 RMK A01 T01581034  RH  027%=      5-min Rain = 0
KAM2 132239Z 03006KT 16/M03 A2986 RMK A01 T01571034  RH  027%=      5-min Rain = 0
KAM2 132240Z 04005KT 16/M03 A2986 RMK A01 T01571033  RH  027%=      5-min Rain = 0
KAM2 132241Z 03005KT 16/M03 A2986 RMK A01 T01571033  RH  027%=      5-min Rain = 0
KAM2 132242Z 04006KT 16/M03 A2986 RMK A01 T01571033  RH  027%=      5-min Rain = 0
KAM2 132243Z 04005KT 16/M03 A2986 RMK A01 T01561033  RH  027%=      5-min Rain = 0
KAM2 132244Z 04005KT 16/M03 A2986 RMK A01 T01561033  RH  027%=      5-min Rain = 0
KAM2 132245Z 05004KT 16/M03 A2985 RMK A01 T01551032  RH  027%=      5-min Rain = 0
KAM2 132246Z 06006KT 15/M03 A2985 RMK A01 T01541032  RH  027%=      5-min Rain = 0
KAM2 132247Z 05006KT 15/M03 A2985 RMK A01 T01541033  RH  027%=      5-min Rain = 0
KAM2 132248Z 06005KT 15/M03 A2985 RMK A01 T01541033  RH  027%=      5-min Rain = 0
KAM2 132249Z 06004KT 15/M03 A2985 RMK A01 T01531034  RH  027%=      5-min Rain = 0
KAM2 132250Z 06004KT 15/M03 A2985 RMK A01 T01531034  RH  027%=      5-min Rain = 0
KAM2 132251Z 06004KT 15/M03 A2985 RMK A01 T01521034  RH  028%=      5-min Rain = 0
KAM2 132252Z 06004KT 15/M03 A2985 RMK A01 T01521033  RH  028%=      5-min Rain = 0
KAM2 132253Z 06004KT 15/M03 A2985 RMK A01 T01511034  RH  028%=      5-min Rain = 0
KAM2 132254Z 06005KT 15/M03 A2985 RMK A01 T01511033  RH  028%=      5-min Rain = 0
KAM2 132255Z 06005KT 15/M03 A2985 RMK A01 T01501033  RH  028%=      5-min Rain = 0
KAM2 132256Z 07005KT 15/M03 A2985 RMK A01 T01491033  RH  028%=      5-min Rain = 0
KAM2 132257Z 07005KT 15/M03 A2985 RMK A01 T01481033  RH  028%=      5-min Rain = 0
KAM2 132258Z 07006KT 15/M03 A2985 RMK A01 T01471032  RH  029%=      5-min Rain = 0
KAM2 132259Z 06005KT 15/M03 A2985 RMK A01 T01471032  RH  029%=      5-min Rain = 0
KAM2 132300Z 06006KT 15/M03 A2985 RMK A01 T01461031  RH  029%=      5-min Rain = 0
KAM2 132301Z 06005KT 15/M03 A2985 RMK A01 T01451031  RH  030%=      5-min Rain = 0
KAM2 132302Z 06006KT 14/M03 A2985 RMK A01 T01441031  RH  030%=      5-min Rain = 0
KAM2 132303Z 06006KT 14/M03 A2985 RMK A01 T01431030  RH  030%=      5-min Rain = 0
KAM2 132304Z 07006KT 14/M03 A2985 RMK A01 T01421030  RH  030%=      5-min Rain = 0
KAM2 132305Z 06006KT 14/M03 A2985 RMK A01 T01411030  RH  030%=      5-min Rain = 0
KAM2 132306Z 06006KT 14/M03 A2985 RMK A01 T01411030  RH  031%=      5-min Rain = 0
KAM2 132307Z 06006KT 14/M03 A2985 RMK A01 T01401030  RH  031%=      5-min Rain = 0
KAM2 132308Z 06006KT 14/M03 A2986 RMK A01 T01391030  RH  031%=      5-min Rain = 0
KAM2 132309Z 06006KT 14/M03 A2986 RMK A01 T01381030  RH  031%=      5-min Rain = 0
KAM2 132310Z 06006KT 14/M03 A2986 RMK A01 T01371030  RH  031%=      5-min Rain = 0
KAM2 132311Z 06006KT 14/M03 A2986 RMK A01 T01361030  RH  032%=      5-min Rain = 0
KAM2 132312Z 06005KT 14/M03 A2986 RMK A01 T01351030  RH  032%=      5-min Rain = 0
KAM2 132313Z 06005KT 13/M03 A2986 RMK A01 T01341029  RH  032%=      5-min Rain = 0
KAM2 132314Z 06006KT 13/M03 A2986 RMK A01 T01331030  RH  032%=      5-min Rain = 0
KAM2 132315Z 05005KT 13/M03 A2986 RMK A01 T01321030  RH  032%=      5-min Rain = 0
KAM2 132316Z 05005KT 13/M03 A2986 RMK A01 T01311029  RH  033%=      5-min Rain = 0
KAM2 132317Z 05005KT 13/M03 A2986 RMK A01 T01301029  RH  033%=      5-min Rain = 0
KAM2 132318Z 05005KT 13/M03 A2986 RMK A01 T01291029  RH  033%=      5-min Rain = 0
KAM2 132319Z 05006KT 13/M03 A2986 RMK A01 T01281029  RH  033%=      5-min Rain = 0
KAM2 132320Z 05006KT 13/M03 A2986 RMK A01 T01271029  RH  034%=      5-min Rain = 0
KAM2 132321Z 05006KT 13/M03 A2986 RMK A01 T01271029  RH  034%=      5-min Rain = 0
KAM2 132322Z 05006KT 13/M03 A2987 RMK A01 T01251029  RH  034%=      5-min Rain = 0
KAM2 132323Z 05006KT 12/M03 A2987 RMK A01 T01241029  RH  034%=      5-min Rain = 0
KAM2 132324Z 05007KT 12/M03 A2987 RMK A01 T01221029  RH  035%=      5-min Rain = 0
KAM2 132325Z 05007KT 12/M03 A2987 RMK A01 T01211030  RH  035%=      5-min Rain = 0
KAM2 132326Z 05006KT 12/M03 A2987 RMK A01 T01201030  RH  035%=      5-min Rain = 0
KAM2 132327Z 05006KT 12/M03 A2987 RMK A01 T01191030  RH  035%=      5-min Rain = 0
KAM2 132328Z 06006KT 12/M03 A2987 RMK A01 T01171030  RH  036%=      5-min Rain = 0
KAM2 132329Z 07005KT 12/M03 A2987 RMK A01 T01161030  RH  036%=      5-min Rain = 0
KAM2 132330Z 07004KT 11/M03 A2987 RMK A01 T01141030  RH  036%=      5-min Rain = 0
KAM2 132331Z 07005KT 11/M03 A2987 RMK A01 T01131030  RH  037%=      5-min Rain = 0
KAM2 132332Z 07005KT 11/M03 A2987 RMK A01 T01111030  RH  037%=      5-min Rain = 0
KAM2 132333Z 07005KT 11/M03 A2987 RMK A01 T01091030  RH  038%=      5-min Rain = 0
KAM2 132334Z 08005KT 11/M03 A2987 RMK A01 T01071031  RH  038%=      5-min Rain = 0
KAM2 132335Z 07006KT 10/M03 A2987 RMK A01 T01041032  RH  038%=      5-min Rain = 0
KAM2 132336Z 07006KT 10/M03 A2987 RMK A01 T01021032  RH  039%=      5-min Rain = 0
KAM2 132337Z 07006KT 10/M03 A2987 RMK A01 T01001032  RH  039%=      5-min Rain = 0
KAM2 132338Z 06006KT 10/M03 A2987 RMK A01 T00981032  RH  040%=      5-min Rain = 0
KAM2 132339Z 06006KT 10/M03 A2987 RMK A01 T00961032  RH  040%=      5-min Rain = 0
KAM2 132340Z 07006KT 10/M03 A2987 RMK A01 T00951032  RH  041%=      5-min Rain = 0
KAM2 132341Z 07006KT 09/M03 A2986 RMK A01 T00931033  RH  041%=      5-min Rain = 0
KAM2 132342Z 07006KT 09/M03 A2986 RMK A01 T00921033  RH  041%=      5-min Rain = 0
KAM2 132343Z 09005KT 09/M03 A2986 RMK A01 T00911033  RH  042%=      5-min Rain = 0
KAM2 132344Z 09004KT 09/M03 A2986 RMK A01 T00901030  RH  043%=      5-min Rain = 0
KAM2 132345Z 09005KT 09/M03 A2987 RMK A01 T00891025  RH  044%=      5-min Rain = 0
KAM2 132346Z 08005KT 09/M03 A2987 RMK A01 T00901025  RH  044%=      5-min Rain = 0
KAM2 132347Z 09005KT 09/M03 A2987 RMK A01 T00911025  RH  044%=      5-min Rain = 0
KAM2 132348Z 09003KT 09/M03 A2987 RMK A01 T00911027  RH  043%=      5-min Rain = 0
KAM2 132349Z 10003KT 09/M03 A2987 RMK A01 T00921026  RH  044%=      5-min Rain = 0
KAM2 132350Z 11004KT 09/M03 A2987 RMK A01 T00911027  RH  043%=      5-min Rain = 0
KAM2 132351Z 10003KT 09/M03 A2987 RMK A01 T00911029  RH  043%=      5-min Rain = 0
KAM2 132352Z 10003KT 09/M03 A2987 RMK A01 T00911030  RH  042%=      5-min Rain = 0
KAM2 132353Z 10003KT 09/M03 A2987 RMK A01 T00901030  RH  043%=      5-min Rain = 0
KAM2 132354Z 10003KT 09/M03 A2988 RMK A01 T00901030  RH  043%=      5-min Rain = 0
KAM2 132355Z 10003KT 09/M03 A2988 RMK A01 T00901030  RH  043%=      5-min Rain = 0
KAM2 132356Z 09003KT 09/M03 A2988 RMK A01 T00891029  RH  043%=      5-min Rain = 0
KAM2 132357Z 09002KT 09/M03 A2988 RMK A01 T00891029  RH  043%=      5-min Rain = 0
KAM2 132358Z 09003KT 09/M03 A2988 RMK A01 T00881029  RH  044%=      5-min Rain = 0
KAM2 132359Z 08002KT 09/M03 A2988 RMK A01 T00881028  RH  044%=      5-min Rain = 0
KAM2 140000Z 07003KT 09/M03 A2988 RMK A01 T00871030  RH  044%=      5-min Rain = 0
KAM2 140001Z 07004KT 09/M03 A2988 RMK A01 T00851032  RH  043%=      5-min Rain = 0
KAM2 140002Z 07005KT 09/M03 A2988 RMK A01 T00851032  RH  043%=      5-min Rain = 0
KAM2 140003Z 08006KT 08/M03 A2988 RMK A01 T00841033  RH  044%=      5-min Rain = 0
KAM2 140004Z 08006KT 08/M03 A2987 RMK A01 T00821034  RH  044%=      5-min Rain = 0
KAM2 140005Z 08007KT 08/M04 A2987 RMK A01 T00791035  RH  044%=      5-min Rain = 0
KAM2 140006Z 08006KT 08/M04 A2987 RMK A01 T00751036  RH  045%=      5-min Rain = 0
KAM2 140007Z 08006KT 07/M04 A2987 RMK A01 T00721035  RH  046%=      5-min Rain = 0
KAM2 140008Z 09005KT 07/M03 A2987 RMK A01 T00711034  RH  047%=      5-min Rain = 0
KAM2 140009Z 09005KT 07/M03 A2987 RMK A01 T00701034  RH  048%=      5-min Rain = 0
KAM2 140010Z 09006KT 07/M03 A2987 RMK A01 T00691031  RH  049%=      5-min Rain = 0
KAM2 140011Z 10007KT 07/M03 A2987 RMK A01 T00711027  RH  050%=      5-min Rain = 0
KAM2 140012Z 10007KT 08/M02 A2987 RMK A01 T00761024  RH  049%=      5-min Rain = 0
KAM2 140013Z 11007KT 08/M03 A2987 RMK A01 T00791025  RH  048%=      5-min Rain = 0
KAM2 140014Z 10007KT 08/M03 A2987 RMK A01 T00811028  RH  046%=      5-min Rain = 0
KAM2 140015Z 10007KT 08/M03 A2986 RMK A01 T00821029  RH  046%=      5-min Rain = 0
KAM2 140016Z 11007KT 08/M03 A2986 RMK A01 T00831029  RH  045%=      5-min Rain = 0
KAM2 140017Z 11006KT 08/M03 A2986 RMK A01 T00841029  RH  045%=      5-min Rain = 0
KAM2 140018Z 11005KT 08/M03 A2986 RMK A01 T00841030  RH  045%=      5-min Rain = 0
KAM2 140019Z 11005KT 08/M03 A2986 RMK A01 T00841030  RH  045%=      5-min Rain = 0
KAM2 140020Z 12005KT 08/M03 A2987 RMK A01 T00841030  RH  045%=      5-min Rain = 0
KAM2 140021Z 13005KT 08/M03 A2987 RMK A01 T00841029  RH  045%=      5-min Rain = 0
KAM2 140022Z 13004KT 08/M03 A2987 RMK A01 T00821031  RH  045%=      5-min Rain = 0
KAM2 140023Z 17003KT 08/M03 A2987 RMK A01 T00771033  RH  046%=      5-min Rain = 0
KAM2 140024Z 19004KT 07/M03 A2987 RMK A01 T00721033  RH  047%=      5-min Rain = 0
KAM2 140025Z 19004KT 07/M03 A2987 RMK A01 T00701032  RH  048%=      5-min Rain = 0
KAM2 140026Z 20003KT 07/M03 A2987 RMK A01 T00701031  RH  048%=      5-min Rain = 0
KAM2 140027Z 20003KT 07/M03 A2987 RMK A01 T00711031  RH  048%=      5-min Rain = 0
KAM2 140028Z 19003KT 07/M03 A2988 RMK A01 T00711032  RH  048%=      5-min Rain = 0
KAM2 140029Z 19002KT 07/M03 A2987 RMK A01 T00701032  RH  048%=      5-min Rain = 0
KAM2 140030Z 19002KT 07/M03 A2987 RMK A01 T00701031  RH  049%=      5-min Rain = 0
KAM2 140031Z 17002KT 07/M03 A2987 RMK A01 T00711030  RH  049%=      5-min Rain = 0
KAM2 140032Z 16001KT 07/M03 A2987 RMK A01 T00711030  RH  048%=      5-min Rain = 0
KAM2 140033Z 14001KT 07/M03 A2987 RMK A01 T00721030  RH  048%=      5-min Rain = 0
KAM2 140034Z 14002KT 07/M03 A2987 RMK A01 T00721032  RH  048%=      5-min Rain = 0
KAM2 140035Z 15001KT 07/M03 A2987 RMK A01 T00701032  RH  048%=      5-min Rain = 0
KAM2 140036Z 19000KT 07/M03 A2987 RMK A01 T00691031  RH  049%=      5-min Rain = 0
KAM2 140037Z 21001KT 07/M03 A2987 RMK A01 T00691031  RH  049%=      5-min Rain = 0
KAM2 140038Z 21001KT 07/M03 A2988 RMK A01 T00691031  RH  049%=      5-min Rain = 0
KAM2 140039Z 23001KT 07/M03 A2988 RMK A01 T00691030  RH  049%=      5-min Rain = 0
KAM2 140040Z 25001KT 07/M03 A2988 RMK A01 T00691031  RH  049%=      5-min Rain = 0
KAM2 140041Z 28000KT 07/M03 A2988 RMK A01 T00691030  RH  049%=      5-min Rain = 0
KAM2 140042Z 18000KT 07/M03 A2988 RMK A01 T00711029  RH  049%=      5-min Rain = 0
KAM2 140043Z 10002KT 07/M03 A2988 RMK A01 T00721030  RH  048%=      5-min Rain = 0
KAM2 140044Z 12001KT 07/M03 A2988 RMK A01 T00731029  RH  048%=      5-min Rain = 0
KAM2 140045Z 13002KT 07/M03 A2988 RMK A01 T00741030  RH  048%=      5-min Rain = 0
KAM2 140046Z 15002KT 08/M03 A2988 RMK A01 T00761029  RH  047%=      5-min Rain = 0
KAM2 140047Z 15002KT 08/M03 A2988 RMK A01 T00771030  RH  047%=      5-min Rain = 0
KAM2 140048Z 12002KT 08/M03 A2988 RMK A01 T00751031  RH  047%=      5-min Rain = 0
KAM2 140049Z 20001KT 07/M03 A2988 RMK A01 T00721032  RH  047%=      5-min Rain = 0
KAM2 140050Z 17001KT 07/M03 A2988 RMK A01 T00711032  RH  048%=      5-min Rain = 0
KAM2 140051Z 19001KT 07/M03 A2988 RMK A01 T00701032  RH  048%=      5-min Rain = 0
KAM2 140052Z 19001KT 07/M03 A2988 RMK A01 T00691032  RH  049%=      5-min Rain = 0
KAM2 140053Z 19002KT 07/M03 A2988 RMK A01 T00691032  RH  049%=      5-min Rain = 0
KAM2 140054Z 15002KT 07/M03 A2988 RMK A01 T00681032  RH  049%=      5-min Rain = 0
KAM2 140055Z 16001KT 07/M03 A2988 RMK A01 T00681031  RH  049%=      5-min Rain = 0
KAM2 140056Z 14001KT 07/M03 A2989 RMK A01 T00691031  RH  049%=      5-min Rain = 0
KAM2 140057Z 14001KT 07/M03 A2989 RMK A01 T00691032  RH  049%=      5-min Rain = 0
KAM2 140058Z 14000KT 07/M03 A2989 RMK A01 T00691032  RH  049%=      5-min Rain = 0
KAM2 140059Z 14001KT 07/M03 A2989 RMK A01 T00691032  RH  049%=      5-min Rain = 0
KAM2 140100Z 00000KT 07/M03 A299 RMK A01 T00681032  RH  049%=      5-min Rain = 0
KAM2 140101Z 23000KT 07/M03 A299 RMK A01 T00661034  RH  049%=      5-min Rain = 0
KAM2 140102Z 24000KT 06/M03 A299 RMK A01 T00631034  RH  050%=      5-min Rain = 0
KAM2 140103Z 23000KT 06/M03 A299 RMK A01 T00631032  RH  051%=      5-min Rain = 0
KAM2 140104Z 22000KT 06/M03 A299 RMK A01 T00621033  RH  050%=      5-min Rain = 0
KAM2 140105Z 00000KT 06/M04 A299 RMK A01 T00591035  RH  051%=      5-min Rain = 0
KAM2 140106Z 19000KT 06/M03 A299 RMK A01 T00571033  RH  052%=      5-min Rain = 0
KAM2 140107Z 19000KT 06/M03 A299 RMK A01 T00571033  RH  053%=      5-min Rain = 0
KAM2 140108Z 00000KT 06/M03 A299 RMK A01 T00561032  RH  053%=      5-min Rain = 0
KAM2 140109Z 00000KT 06/M03 A299 RMK A01 T00551033  RH  053%=      5-min Rain = 0
KAM2 140110Z 00000KT 06/M03 A299 RMK A01 T00571030  RH  053%=      5-min Rain = 0
KAM2 140111Z 00000KT 06/M03 A299 RMK A01 T00591030  RH  053%=      5-min Rain = 0
KAM2 140112Z 00000KT 06/M03 A299 RMK A01 T00591031  RH  052%=      5-min Rain = 0
KAM2 140113Z 00000KT 06/M03 A299 RMK A01 T00561034  RH  052%=      5-min Rain = 0
KAM2 140114Z 03001KT 06/M03 A299 RMK A01 T00551032  RH  053%=      5-min Rain = 0
KAM2 140115Z 02002KT 05/M03 A299 RMK A01 T00541033  RH  054%=      5-min Rain = 0
KAM2 140116Z 02002KT 05/M04 A299 RMK A01 T00511035  RH  054%=      5-min Rain = 0
KAM2 140117Z 03002KT 05/M04 A2991 RMK A01 T00491035  RH  055%=      5-min Rain = 0
KAM2 140118Z 03002KT 05/M04 A2991 RMK A01 T00481035  RH  055%=      5-min Rain = 0
KAM2 140119Z 04001KT 05/M04 A2991 RMK A01 T00461035  RH  056%=      5-min Rain = 0
KAM2 140120Z 04001KT 05/M03 A2991 RMK A01 T00481033  RH  056%=      5-min Rain = 0
KAM2 140121Z 02001KT 05/M04 A2991 RMK A01 T00481035  RH  055%=      5-min Rain = 0
KAM2 140122Z 01000KT 05/M04 A2991 RMK A01 T00461037  RH  055%=      5-min Rain = 0
KAM2 140123Z 32000KT 04/M04 A2991 RMK A01 T00421039  RH  056%=      5-min Rain = 0
KAM2 140124Z 00000KT 04/M04 A2991 RMK A01 T00391039  RH  057%=      5-min Rain = 0
KAM2 140125Z 00000KT 04/M04 A2992 RMK A01 T00371037  RH  058%=      5-min Rain = 0
KAM2 140126Z 00000KT 04/M04 A2992 RMK A01 T00361037  RH  059%=      5-min Rain = 0
KAM2 140127Z 00000KT 04/M04 A2992 RMK A01 T00351036  RH  060%=      5-min Rain = 0
KAM2 140128Z 00000KT 03/M04 A2991 RMK A01 T00331039  RH  059%=      5-min Rain = 0
KAM2 140129Z 14001KT 03/M04 A2991 RMK A01 T00301039  RH  060%=      5-min Rain = 0
KAM2 140130Z 14001KT 03/M04 A2991 RMK A01 T00291037  RH  062%=      5-min Rain = 0
KAM2 140131Z 13001KT 03/M04 A2992 RMK A01 T00301037  RH  062%=      5-min Rain = 0
KAM2 140132Z 14001KT 03/M04 A2991 RMK A01 T00311035  RH  062%=      5-min Rain = 0
KAM2 140133Z 15002KT 03/M04 A2991 RMK A01 T00321036  RH  061%=      5-min Rain = 0
KAM2 140134Z 15002KT 03/M04 A2991 RMK A01 T00311038  RH  061%=      5-min Rain = 0
KAM2 140135Z 16002KT 03/M04 A2991 RMK A01 T00291036  RH  062%=      5-min Rain = 0
KAM2 140136Z 16002KT 03/M04 A2991 RMK A01 T00271037  RH  063%=      5-min Rain = 0
KAM2 140137Z 17002KT 02/M04 A2991 RMK A01 T00241038  RH  064%=      5-min Rain = 0
KAM2 140138Z 17002KT 02/M04 A2991 RMK A01 T00221038  RH  065%=      5-min Rain = 0
KAM2 140139Z 17002KT 02/M04 A2991 RMK A01 T00211038  RH  065%=      5-min Rain = 0
KAM2 140140Z 17002KT 02/M04 A2991 RMK A01 T00211038  RH  065%=      5-min Rain = 0
KAM2 140141Z 17002KT 02/M04 A2992 RMK A01 T00211038  RH  065%=      5-min Rain = 0
KAM2 140142Z 16001KT 02/M04 A2992 RMK A01 T00221037  RH  065%=      5-min Rain = 0
KAM2 140143Z 14001KT 02/M04 A2992 RMK A01 T00231037  RH  065%=      5-min Rain = 0
KAM2 140144Z 12001KT 02/M04 A2992 RMK A01 T00231036  RH  065%=      5-min Rain = 0
KAM2 140145Z 11001KT 02/M04 A2992 RMK A01 T00241035  RH  065%=      5-min Rain = 0
KAM2 140146Z 11001KT 02/M03 A2992 RMK A01 T00241034  RH  065%=      5-min Rain = 0
KAM2 140147Z 11000KT 03/M03 A2992 RMK A01 T00251033  RH  066%=      5-min Rain = 0
KAM2 140148Z 00000KT 03/M03 A2992 RMK A01 T00251034  RH  065%=      5-min Rain = 0
KAM2 140149Z 13000KT 03/M04 A2992 RMK A01 T00251036  RH  064%=      5-min Rain = 0
KAM2 140150Z 00000KT 02/M04 A2992 RMK A01 T00241035  RH  065%=      5-min Rain = 0
KAM2 140151Z 13000KT 02/M03 A2992 RMK A01 T00241034  RH  065%=      5-min Rain = 0
KAM2 140152Z 13001KT 03/M03 A2992 RMK A01 T00251034  RH  065%=      5-min Rain = 0
KAM2 140153Z 14002KT 03/M03 A2992 RMK A01 T00251034  RH  065%=      5-min Rain = 0
KAM2 140154Z 16002KT 02/M03 A2992 RMK A01 T00241034  RH  065%=      5-min Rain = 0
KAM2 140155Z 17003KT 02/M04 A2992 RMK A01 T00221036  RH  065%=      5-min Rain = 0
KAM2 140156Z 17003KT 02/M04 A2992 RMK A01 T00201037  RH  066%=      5-min Rain = 0
KAM2 140157Z 18003KT 02/M04 A2992 RMK A01 T00161039  RH  067%=      5-min Rain = 0
KAM2 140158Z 18004KT 01/M04 A2992 RMK A01 T00131039  RH  068%=      5-min Rain = 0
KAM2 140159Z 18005KT 01/M04 A2991 RMK A01 T00101040  RH  069%=      5-min Rain = 0
KAM2 140200Z 18005KT 01/M04 A2991 RMK A01 T00081040  RH  070%=      5-min Rain = 0
KAM2 140201Z 18005KT 01/M04 A2991 RMK A01 T00071040  RH  071%=      5-min Rain = 0
KAM2 140202Z 18005KT 01/M04 A2991 RMK A01 T00071039  RH  071%=      5-min Rain = 0
KAM2 140203Z 18005KT 01/M04 A2991 RMK A01 T00081039  RH  071%=      5-min Rain = 0
KAM2 140204Z 18006KT 01/M04 A2991 RMK A01 T00081038  RH  071%=      5-min Rain = 0
KAM2 140205Z 19005KT 01/M04 A2991 RMK A01 T00091038  RH  071%=      5-min Rain = 0
KAM2 140206Z 20004KT 01/M04 A2992 RMK A01 T00091039  RH  071%=      5-min Rain = 0
KAM2 140207Z 20005KT 01/M04 A2992 RMK A01 T00101037  RH  071%=      5-min Rain = 0
KAM2 140208Z 19006KT 01/M04 A2992 RMK A01 T00121035  RH  070%=      5-min Rain = 0
KAM2 140209Z 19005KT 02/M04 A2992 RMK A01 T00151035  RH  069%=      5-min Rain = 0
KAM2 140210Z 19005KT 02/M04 A2993 RMK A01 T00181035  RH  068%=      5-min Rain = 0
KAM2 140211Z 20004KT 02/M04 A2993 RMK A01 T00191035  RH  067%=      5-min Rain = 0
KAM2 140212Z 20003KT 02/M04 A2993 RMK A01 T00191035  RH  067%=      5-min Rain = 0
KAM2 140213Z 20003KT 02/M04 A2993 RMK A01 T00191036  RH  067%=      5-min Rain = 0
KAM2 140214Z 19004KT 02/M04 A2993 RMK A01 T00181036  RH  067%=      5-min Rain = 0
KAM2 140215Z 18003KT 02/M04 A2993 RMK A01 T00181036  RH  067%=      5-min Rain = 0
KAM2 140216Z 18004KT 02/M04 A2993 RMK A01 T00181036  RH  067%=      5-min Rain = 0
KAM2 140217Z 18004KT 02/M04 A2993 RMK A01 T00181037  RH  067%=      5-min Rain = 0
KAM2 140218Z 17004KT 02/M04 A2993 RMK A01 T00181037  RH  067%=      5-min Rain = 0
KAM2 140219Z 16003KT 02/M04 A2993 RMK A01 T00191037  RH  066%=      5-min Rain = 0
KAM2 140220Z 18003KT 02/M04 A2993 RMK A01 T00191037  RH  067%=      5-min Rain = 0
KAM2 140221Z 19004KT 02/M04 A2993 RMK A01 T00181036  RH  067%=      5-min Rain = 0
KAM2 140222Z 20004KT 02/M04 A2992 RMK A01 T00181036  RH  067%=      5-min Rain = 0
KAM2 140223Z 20003KT 02/M04 A2992 RMK A01 T00191036  RH  067%=      5-min Rain = 0
KAM2 140224Z 20003KT 02/M04 A2992 RMK A01 T00191036  RH  067%=      5-min Rain = 0
KAM2 140225Z 21003KT 02/M04 A2993 RMK A01 T00181038  RH  067%=      5-min Rain = 0
KAM2 140226Z 20003KT 02/M04 A2993 RMK A01 T00161038  RH  067%=      5-min Rain = 0
KAM2 140227Z 20004KT 02/M04 A2992 RMK A01 T00151039  RH  067%=      5-min Rain = 0
KAM2 140228Z 20003KT 01/M04 A2992 RMK A01 T00141039  RH  068%=      5-min Rain = 0
KAM2 140229Z 19003KT 01/M04 A2992 RMK A01 T00141039  RH  068%=      5-min Rain = 0
KAM2 140230Z 18003KT 01/M04 A2993 RMK A01 T00141038  RH  069%=      5-min Rain = 0
KAM2 140231Z 18004KT 01/M04 A2993 RMK A01 T00141037  RH  069%=      5-min Rain = 0
KAM2 140232Z 18004KT 01/M04 A2993 RMK A01 T00141037  RH  069%=      5-min Rain = 0
KAM2 140233Z 17003KT 01/M04 A2993 RMK A01 T00141037  RH  069%=      5-min Rain = 0
KAM2 140234Z 17003KT 02/M04 A2993 RMK A01 T00151036  RH  069%=      5-min Rain = 0
KAM2 140235Z 17002KT 02/M04 A2993 RMK A01 T00161035  RH  069%=      5-min Rain = 0
KAM2 140236Z 17002KT 02/M03 A2993 RMK A01 T00181033  RH  069%=      5-min Rain = 0
KAM2 140237Z 17002KT 02/M03 A2993 RMK A01 T00201032  RH  069%=      5-min Rain = 0
KAM2 140238Z 17002KT 02/M03 A2993 RMK A01 T00221031  RH  068%=      5-min Rain = 0
KAM2 140239Z 17002KT 02/M03 A2993 RMK A01 T00241031  RH  067%=      5-min Rain = 0
KAM2 140240Z 18001KT 03/M03 A2994 RMK A01 T00261031  RH  066%=      5-min Rain = 0
KAM2 140241Z 18000KT 03/M03 A2994 RMK A01 T00281032  RH  065%=      5-min Rain = 0
KAM2 140242Z 21000KT 03/M03 A2994 RMK A01 T00281033  RH  064%=      5-min Rain = 0
KAM2 140243Z 20000KT 03/M03 A2994 RMK A01 T00271033  RH  065%=      5-min Rain = 0
KAM2 140244Z 00000KT 03/M04 A2994 RMK A01 T00261036  RH  064%=      5-min Rain = 0
KAM2 140245Z 00000KT 02/M04 A2994 RMK A01 T00231039  RH  064%=      5-min Rain = 0
KAM2 140246Z 00000KT 02/M04 A2994 RMK A01 T00201039  RH  065%=      5-min Rain = 0
KAM2 140247Z 26000KT 02/M04 A2994 RMK A01 T00191038  RH  066%=      5-min Rain = 0
KAM2 140248Z 23001KT 02/M04 A2994 RMK A01 T00181037  RH  067%=      5-min Rain = 0
KAM2 140249Z 21000KT 02/M04 A2994 RMK A01 T00181037  RH  067%=      5-min Rain = 0
KAM2 140250Z 00000KT 02/M04 A2995 RMK A01 T00171037  RH  067%=      5-min Rain = 0
KAM2 140251Z 00000KT 02/M04 A2995 RMK A01 T00161037  RH  068%=      5-min Rain = 0
KAM2 140252Z 30000KT 02/M04 A2995 RMK A01 T00161037  RH  068%=      5-min Rain = 0
KAM2 140253Z 30000KT 02/M04 A2995 RMK A01 T00161037  RH  068%=      5-min Rain = 0
KAM2 140254Z 00000KT 02/M04 A2995 RMK A01 T00161037  RH  068%=      5-min Rain = 0
KAM2 140255Z 00000KT 02/M04 A2995 RMK A01 T00151038  RH  068%=      5-min Rain = 0
KAM2 140256Z 00000KT 02/M04 A2995 RMK A01 T00151038  RH  068%=      5-min Rain = 0
KAM2 140257Z 00000KT 01/M04 A2995 RMK A01 T00141038  RH  069%=      5-min Rain = 0
KAM2 140258Z 13000KT 01/M04 A2995 RMK A01 T00141037  RH  069%=      5-min Rain = 0
KAM2 140259Z 13000KT 01/M04 A2994 RMK A01 T00131037  RH  069%=      5-min Rain = 0
KAM2 140300Z 15001KT 01/M04 A2994 RMK A01 T00131038  RH  069%=      5-min Rain = 0
KAM2 140301Z 15002KT 01/M04 A2994 RMK A01 T00121038  RH  069%=      5-min Rain = 0
KAM2 140302Z 16002KT 01/M04 A2994 RMK A01 T00101039  RH  070%=      5-min Rain = 0
KAM2 140303Z 17002KT 01/M04 A2995 RMK A01 T00081040  RH  070%=      5-min Rain = 0
KAM2 140304Z 18002KT 01/M04 A2995 RMK A01 T00061041  RH  071%=      5-min Rain = 0
KAM2 140305Z 18002KT 00/M04 A2995 RMK A01 T00041041  RH  072%=      5-min Rain = 0
KAM2 140306Z 18002KT 00/M04 A2995 RMK A01 T00031041  RH  072%=      5-min Rain = 0
KAM2 140307Z 18002KT 00/M04 A2995 RMK A01 T00021040  RH  073%=      5-min Rain = 0
KAM2 140308Z 18002KT 00/M04 A2995 RMK A01 T00011040  RH  074%=      5-min Rain = 0
KAM2 140309Z 18002KT 00/M04 A2995 RMK A01 T00021040  RH  073%=      5-min Rain = 0
KAM2 140310Z 18002KT 00/M04 A2995 RMK A01 T00021041  RH  073%=      5-min Rain = 0
KAM2 140311Z 19002KT 00/M04 A2995 RMK A01 T00021040  RH  073%=      5-min Rain = 0
KAM2 140312Z 20001KT 00/M04 A2995 RMK A01 T00021040  RH  073%=      5-min Rain = 0
KAM2 140313Z 22001KT 00/M04 A2995 RMK A01 T00031039  RH  073%=      5-min Rain = 0
KAM2 140314Z 25001KT 00/M04 A2996 RMK A01 T00031040  RH  073%=      5-min Rain = 0
KAM2 140315Z 27001KT 00/M04 A2996 RMK A01 T00031040  RH  073%=      5-min Rain = 0
KAM2 140316Z 29000KT 00/M04 A2996 RMK A01 T00031040  RH  073%=      5-min Rain = 0
KAM2 140317Z 00000KT 00/M04 A2995 RMK A01 T00031039  RH  073%=      5-min Rain = 0
KAM2 140318Z 00000KT 01/M04 A2995 RMK A01 T00051037  RH  074%=      5-min Rain = 0
KAM2 140319Z 00000KT 01/M04 A2996 RMK A01 T00061035  RH  074%=      5-min Rain = 0
KAM2 140320Z 00000KT 01/M04 A2996 RMK A01 T00071036  RH  073%=      5-min Rain = 0
KAM2 140321Z 32000KT 01/M04 A2996 RMK A01 T00071037  RH  073%=      5-min Rain = 0
KAM2 140322Z 00000KT 01/M04 A2996 RMK A01 T00061036  RH  073%=      5-min Rain = 0
KAM2 140323Z 16001KT 01/M04 A2996 RMK A01 T00061036  RH  074%=      5-min Rain = 0
KAM2 140324Z 17001KT 01/M04 A2996 RMK A01 T00061036  RH  074%=      5-min Rain = 0
KAM2 140325Z 17000KT 01/M04 A2996 RMK A01 T00071036  RH  073%=      5-min Rain = 0
KAM2 140326Z 00000KT 01/M04 A2996 RMK A01 T00071036  RH  073%=      5-min Rain = 0
KAM2 140327Z 00000KT 01/M04 A2996 RMK A01 T00081036  RH  072%=      5-min Rain = 0
KAM2 140328Z 14000KT 01/M04 A2996 RMK A01 T00081036  RH  072%=      5-min Rain = 0
KAM2 140329Z 14001KT 01/M04 A2996 RMK A01 T00091036  RH  072%=      5-min Rain = 0
KAM2 140330Z 16000KT 01/M04 A2997 RMK A01 T00081036  RH  072%=      5-min Rain = 0
KAM2 140331Z 16000KT 01/M04 A2997 RMK A01 T00081037  RH  072%=      5-min Rain = 0
KAM2 140332Z 00000KT 01/M04 A2997 RMK A01 T00081037  RH  072%=      5-min Rain = 0
KAM2 140333Z 00000KT 01/M04 A2997 RMK A01 T00071037  RH  072%=      5-min Rain = 0
KAM2 140334Z 00000KT 01/M04 A2997 RMK A01 T00071036  RH  073%=      5-min Rain = 0
KAM2 140335Z 00000KT 01/M04 A2997 RMK A01 T00071036  RH  073%=      5-min Rain = 0
KAM2 140336Z 00000KT 01/M04 A2997 RMK A01 T00071035  RH  073%=      5-min Rain = 0
KAM2 140337Z 00000KT 01/M04 A2997 RMK A01 T00071035  RH  074%=      5-min Rain = 0
KAM2 140338Z 00000KT 01/M03 A2996 RMK A01 T00071034  RH  074%=      5-min Rain = 0
KAM2 140339Z 00000KT 01/M04 A2996 RMK A01 T00061035  RH  074%=      5-min Rain = 0
KAM2 140340Z 00000KT 01/M03 A2996 RMK A01 T00061034  RH  074%=      5-min Rain = 0
KAM2 140341Z 00000KT 01/M03 A2996 RMK A01 T00061034  RH  075%=      5-min Rain = 0
KAM2 140342Z 00000KT 01/M03 A2996 RMK A01 T00061033  RH  075%=      5-min Rain = 0
KAM2 140343Z 00000KT 01/M03 A2996 RMK A01 T00071033  RH  075%=      5-min Rain = 0
KAM2 140344Z 00000KT 01/M03 A2996 RMK A01 T00071033  RH  074%=      5-min Rain = 0
KAM2 140345Z 00000KT 01/M03 A2996 RMK A01 T00081033  RH  074%=      5-min Rain = 0
KAM2 140346Z 00000KT 01/M03 A2996 RMK A01 T00081033  RH  074%=      5-min Rain = 0
KAM2 140347Z 00000KT 01/M03 A2996 RMK A01 T00081033  RH  074%=      5-min Rain = 0
KAM2 140348Z 00000KT 01/M03 A2996 RMK A01 T00071033  RH  075%=      5-min Rain = 0
KAM2 140349Z 14000KT 01/M03 A2996 RMK A01 T00071032  RH  075%=      5-min Rain = 0
KAM2 140350Z 14001KT 01/M03 A2996 RMK A01 T00071033  RH  075%=      5-min Rain = 0
KAM2 140351Z 16001KT 01/M03 A2996 RMK A01 T00071034  RH  074%=      5-min Rain = 0
KAM2 140352Z 16001KT 01/M03 A2996 RMK A01 T00071034  RH  074%=      5-min Rain = 0
KAM2 140353Z 17000KT 01/M04 A2996 RMK A01 T00071035  RH  074%=      5-min Rain = 0
KAM2 140354Z 00000KT 01/M04 A2996 RMK A01 T00071035  RH  074%=      5-min Rain = 0
KAM2 140355Z 13000KT 01/M04 A2996 RMK A01 T00071035  RH  074%=      5-min Rain = 0
KAM2 140356Z 13001KT 01/M04 A2996 RMK A01 T00071035  RH  074%=      5-min Rain = 0
KAM2 140357Z 14000KT 01/M03 A2997 RMK A01 T00081034  RH  074%=      5-min Rain = 0
KAM2 140358Z 15000KT 01/M03 A2997 RMK A01 T00081034  RH  074%=      5-min Rain = 0
KAM2 140359Z 00000KT 01/M03 A2997 RMK A01 T00091033  RH  074%=      5-min Rain = 0
KAM2 140400Z 00000KT 01/M03 A2997 RMK A01 T00091033  RH  073%=      5-min Rain = 0
KAM2 140401Z 15001KT 01/M03 A2997 RMK A01 T00101033  RH  073%=      5-min Rain = 0
KAM2 140402Z 15001KT 01/M03 A2997 RMK A01 T00101033  RH  073%=      5-min Rain = 0
KAM2 140403Z 15001KT 01/M03 A2997 RMK A01 T00101033  RH  073%=      5-min Rain = 0
KAM2 140404Z 13001KT 01/M03 A2997 RMK A01 T00101033  RH  073%=      5-min Rain = 0
KAM2 140405Z 12001KT 01/M03 A2996 RMK A01 T00101033  RH  073%=      5-min Rain = 0
KAM2 140406Z 12001KT 01/M03 A2996 RMK A01 T00111033  RH  073%=      5-min Rain = 0
KAM2 140407Z 12001KT 01/M03 A2996 RMK A01 T00111033  RH  073%=      5-min Rain = 0
KAM2 140408Z 12000KT 01/M03 A2996 RMK A01 T00111032  RH  073%=      5-min Rain = 0
KAM2 140409Z 12000KT 01/M03 A2996 RMK A01 T00111032  RH  073%=      5-min Rain = 0
KAM2 140410Z 00000KT 01/M03 A2997 RMK A01 T00121032  RH  073%=      5-min Rain = 0
KAM2 140411Z 00001KT 01/M03 A2997 RMK A01 T00121032  RH  073%=      5-min Rain = 0
KAM2 140412Z 35003KT 01/M03 A2997 RMK A01 T00111033  RH  072%=      5-min Rain = 0
KAM2 140413Z 35003KT 01/M03 A2997 RMK A01 T00101033  RH  073%=      5-min Rain = 0
KAM2 140414Z 35003KT 01/M03 A2997 RMK A01 T00091033  RH  074%=      5-min Rain = 0
KAM2 140415Z 35005KT 01/M03 A2998 RMK A01 T00081032  RH  074%=      5-min Rain = 0
KAM2 140416Z 35004KT 01/M03 A2997 RMK A01 T00081031  RH  075%=      5-min Rain = 0
KAM2 140417Z 35004KT 01/M03 A2997 RMK A01 T00081029  RH  076%=      5-min Rain = 0
KAM2 140418Z 35004KT 01/M03 A2997 RMK A01 T00071029  RH  076%=      5-min Rain = 0
KAM2 140419Z 36003KT 01/M03 A2997 RMK A01 T00061030  RH  077%=      5-min Rain = 0
KAM2 140420Z 00003KT 01/M03 A2997 RMK A01 T00061030  RH  077%=      5-min Rain = 0
KAM2 140421Z 01002KT 01/M03 A2997 RMK A01 T00061029  RH  077%=      5-min Rain = 0
KAM2 140422Z 03002KT 01/M03 A2997 RMK A01 T00061029  RH  078%=      5-min Rain = 0
KAM2 140423Z 04002KT 01/M03 A2997 RMK A01 T00061029  RH  078%=      5-min Rain = 0
KAM2 140424Z 04002KT 01/M03 A2997 RMK A01 T00061029  RH  078%=      5-min Rain = 0
KAM2 140425Z 03002KT 01/M03 A2997 RMK A01 T00061028  RH  078%=      5-min Rain = 0
KAM2 140426Z 04001KT 01/M03 A2997 RMK A01 T00071028  RH  077%=      5-min Rain = 0
KAM2 140427Z 03002KT 01/M03 A2997 RMK A01 T00071028  RH  077%=      5-min Rain = 0
KAM2 140428Z 02002KT 01/M03 A2997 RMK A01 T00081029  RH  077%=      5-min Rain = 0
KAM2 140429Z 01002KT 01/M03 A2997 RMK A01 T00081029  RH  077%=      5-min Rain = 0
KAM2 140430Z 01002KT 01/M03 A2998 RMK A01 T00081029  RH  076%=      5-min Rain = 0
KAM2 140431Z 01002KT 01/M03 A2998 RMK A01 T00081029  RH  076%=      5-min Rain = 0
KAM2 140432Z 01002KT 01/M03 A2997 RMK A01 T00081029  RH  076%=      5-min Rain = 0
KAM2 140433Z 01002KT 01/M03 A2997 RMK A01 T00091028  RH  076%=      5-min Rain = 0
KAM2 140434Z 01002KT 01/M03 A2997 RMK A01 T00101029  RH  075%=      5-min Rain = 0
KAM2 140435Z 00002KT 01/M03 A2997 RMK A01 T00101029  RH  075%=      5-min Rain = 0
KAM2 140436Z 01002KT 01/M03 A2997 RMK A01 T00101029  RH  075%=      5-min Rain = 0
KAM2 140437Z 01002KT 01/M03 A2997 RMK A01 T00111029  RH  075%=      5-min Rain = 0
KAM2 140438Z 02002KT 01/M03 A2997 RMK A01 T00111028  RH  075%=      5-min Rain = 0
KAM2 140439Z 01002KT 01/M03 A2997 RMK A01 T00121028  RH  075%=      5-min Rain = 0
KAM2 140440Z 02003KT 01/M03 A2997 RMK A01 T00121028  RH  075%=      5-min Rain = 0
KAM2 140441Z 01003KT 01/M03 A2997 RMK A01 T00121029  RH  075%=      5-min Rain = 0
KAM2 140442Z 01003KT 01/M03 A2997 RMK A01 T00121028  RH  075%=      5-min Rain = 0
KAM2 140443Z 01003KT 01/M03 A2997 RMK A01 T00121028  RH  075%=      5-min Rain = 0
KAM2 140444Z 02001KT 01/M03 A2997 RMK A01 T00131028  RH  075%=      5-min Rain = 0
KAM2 140445Z 02000KT 01/M03 A2997 RMK A01 T00131028  RH  074%=      5-min Rain = 0
KAM2 140446Z 16000KT 01/M03 A2997 RMK A01 T00121028  RH  075%=      5-min Rain = 0
KAM2 140447Z 14000KT 01/M03 A2997 RMK A01 T00111028  RH  075%=      5-min Rain = 0
KAM2 140448Z 04000KT 01/M03 A2997 RMK A01 T00101027  RH  076%=      5-min Rain = 0
KAM2 140449Z 11000KT 01/M03 A2997 RMK A01 T00111026  RH  076%=      5-min Rain = 0
KAM2 140450Z 00000KT 01/M03 A2997 RMK A01 T00111026  RH  076%=      5-min Rain = 0
KAM2 140451Z 01000KT 01/M03 A2998 RMK A01 T00111027  RH  076%=      5-min Rain = 0
KAM2 140452Z 00000KT 01/M03 A2998 RMK A01 T00101027  RH  076%=      5-min Rain = 0
KAM2 140453Z 03000KT 01/M03 A2998 RMK A01 T00101027  RH  076%=      5-min Rain = 0
KAM2 140454Z 06000KT 01/M03 A2998 RMK A01 T00101027  RH  076%=      5-min Rain = 0
KAM2 140455Z 07000KT 01/M03 A2998 RMK A01 T00111026  RH  076%=      5-min Rain = 0
KAM2 140456Z 14000KT 01/M03 A2998 RMK A01 T00111026  RH  076%=      5-min Rain = 0
KAM2 140457Z 11000KT 01/M03 A2998 RMK A01 T00121026  RH  076%=      5-min Rain = 0
KAM2 140458Z 13000KT 01/M03 A2998 RMK A01 T00121027  RH  075%=      5-min Rain = 0
KAM2 140459Z 14001KT 01/M03 A2998 RMK A01 T00131027  RH  075%=      5-min Rain = 0
KAM2 140500Z 14001KT 01/M03 A2998 RMK A01 T00131027  RH  074%=      5-min Rain = 0
KAM2 140501Z 14002KT 01/M03 A2997 RMK A01 T00131027  RH  074%=      5-min Rain = 0
KAM2 140502Z 14001KT 01/M03 A2997 RMK A01 T00131027  RH  074%=      5-min Rain = 0
KAM2 140503Z 15001KT 01/M03 A2997 RMK A01 T00131028  RH  074%=      5-min Rain = 0
KAM2 140504Z 15002KT 01/M03 A2997 RMK A01 T00131028  RH  074%=      5-min Rain = 0
KAM2 140505Z 16002KT 01/M03 A2997 RMK A01 T00131028  RH  074%=      5-min Rain = 0
KAM2 140506Z 17003KT 01/M03 A2997 RMK A01 T00121028  RH  075%=      5-min Rain = 0
KAM2 140507Z 17003KT 01/M03 A2997 RMK A01 T00111028  RH  075%=      5-min Rain = 0
KAM2 140508Z 17004KT 01/M03 A2997 RMK A01 T00101028  RH  076%=      5-min Rain = 0
KAM2 140509Z 17003KT 01/M03 A2997 RMK A01 T00091029  RH  076%=      5-min Rain = 0
KAM2 140510Z 18004KT 01/M03 A2997 RMK A01 T00071029  RH  077%=      5-min Rain = 0
KAM2 140511Z 18004KT 01/M03 A2997 RMK A01 T00071028  RH  077%=      5-min Rain = 0
KAM2 140512Z 19004KT 01/M03 A2997 RMK A01 T00071027  RH  078%=      5-min Rain = 0
KAM2 140513Z 19003KT 01/M03 A2997 RMK A01 T00071026  RH  078%=      5-min Rain = 0
KAM2 140514Z 19003KT 01/M03 A2997 RMK A01 T00081026  RH  078%=      5-min Rain = 0
KAM2 140515Z 19003KT 01/M03 A2997 RMK A01 T00101025  RH  078%=      5-min Rain = 0
KAM2 140516Z 19003KT 01/M02 A2997 RMK A01 T00111024  RH  077%=      5-min Rain = 0
KAM2 140517Z 19003KT 01/M02 A2997 RMK A01 T00141024  RH  076%=      5-min Rain = 0
KAM2 140518Z 19003KT 01/M02 A2997 RMK A01 T00141024  RH  076%=      5-min Rain = 0
KAM2 140519Z 19003KT 02/M02 A2997 RMK A01 T00151024  RH  075%=      5-min Rain = 0
KAM2 140520Z 19003KT 02/M02 A2997 RMK A01 T00161024  RH  075%=      5-min Rain = 0
KAM2 140521Z 18003KT 02/M02 A2997 RMK A01 T00171024  RH  074%=      5-min Rain = 0
KAM2 140522Z 19003KT 02/M02 A2997 RMK A01 T00181024  RH  074%=      5-min Rain = 0
KAM2 140523Z 19003KT 02/M03 A2997 RMK A01 T00181025  RH  073%=      5-min Rain = 0
KAM2 140524Z 19004KT 02/M03 A2997 RMK A01 T00171025  RH  074%=      5-min Rain = 0
KAM2 140525Z 19003KT 02/M03 A2997 RMK A01 T00151027  RH  074%=      5-min Rain = 0
KAM2 140526Z 19003KT 01/M03 A2996 RMK A01 T00131027  RH  074%=      5-min Rain = 0
KAM2 140527Z 19003KT 01/M03 A2996 RMK A01 T00121027  RH  075%=      5-min Rain = 0
KAM2 140528Z 18003KT 01/M03 A2996 RMK A01 T00121027  RH  075%=      5-min Rain = 0
KAM2 140529Z 17002KT 01/M03 A2996 RMK A01 T00121027  RH  075%=      5-min Rain = 0
KAM2 140530Z 16002KT 01/M03 A2996 RMK A01 T00121027  RH  075%=      5-min Rain = 0
KAM2 140531Z 16002KT 01/M03 A2995 RMK A01 T00121027  RH  075%=      5-min Rain = 0
KAM2 140532Z 15002KT 01/M03 A2995 RMK A01 T00121027  RH  075%=      5-min Rain = 0
KAM2 140533Z 14002KT 01/M03 A2995 RMK A01 T00121026  RH  076%=      5-min Rain = 0
KAM2 140534Z 15002KT 01/M03 A2995 RMK A01 T00131025  RH  076%=      5-min Rain = 0
KAM2 140535Z 16002KT 01/M03 A2995 RMK A01 T00131025  RH  075%=      5-min Rain = 0
KAM2 140536Z 18003KT 01/M03 A2995 RMK A01 T00141026  RH  075%=      5-min Rain = 0
KAM2 140537Z 20003KT 01/M03 A2995 RMK A01 T00121027  RH  075%=      5-min Rain = 0
KAM2 140538Z 20003KT 01/M03 A2995 RMK A01 T00101028  RH  076%=      5-min Rain = 0
KAM2 140539Z 20003KT 01/M03 A2995 RMK A01 T00091028  RH  077%=      5-min Rain = 0
KAM2 140540Z 20004KT 01/M03 A2995 RMK A01 T00071028  RH  077%=      5-min Rain = 0
KAM2 140541Z 20004KT 01/M03 A2995 RMK A01 T00071027  RH  078%=      5-min Rain = 0
KAM2 140542Z 20003KT 01/M03 A2996 RMK A01 T00081027  RH  078%=      5-min Rain = 0
KAM2 140543Z 19003KT 01/M03 A2996 RMK A01 T00101027  RH  076%=      5-min Rain = 0
KAM2 140544Z 19003KT 01/M03 A2996 RMK A01 T00131026  RH  075%=      5-min Rain = 0
KAM2 140545Z 19002KT 02/M03 A2996 RMK A01 T00171025  RH  073%=      5-min Rain = 0
KAM2 140546Z 18002KT 02/M03 A2996 RMK A01 T00201026  RH  072%=      5-min Rain = 0
KAM2 140547Z 18002KT 02/M03 A2996 RMK A01 T00231026  RH  070%=      5-min Rain = 0
KAM2 140548Z 19001KT 02/M03 A2996 RMK A01 T00231027  RH  070%=      5-min Rain = 0
KAM2 140549Z 20000KT 03/M03 A2996 RMK A01 T00251026  RH  069%=      5-min Rain = 0
KAM2 140550Z 00000KT 03/M03 A2996 RMK A01 T00251027  RH  068%=      5-min Rain = 0
KAM2 140551Z 00000KT 02/M03 A2996 RMK A01 T00241028  RH  068%=      5-min Rain = 0
KAM2 140552Z 00000KT 02/M03 A2996 RMK A01 T00211031  RH  069%=      5-min Rain = 0
KAM2 140553Z 00000KT 02/M03 A2996 RMK A01 T00171032  RH  070%=      5-min Rain = 0
KAM2 140554Z 01001KT 01/M03 A2996 RMK A01 T00141032  RH  072%=      5-min Rain = 0
KAM2 140555Z 02001KT 01/M03 A2996 RMK A01 T00131030  RH  073%=      5-min Rain = 0
KAM2 140556Z 02001KT 01/M03 A2996 RMK A01 T00141029  RH  073%=      5-min Rain = 0
KAM2 140557Z 01001KT 02/M03 A2996 RMK A01 T00151027  RH  073%=      5-min Rain = 0
KAM2 140558Z 01001KT 02/M03 A2996 RMK A01 T00161028  RH  073%=      5-min Rain = 0
KAM2 140559Z 03000KT 02/M03 A2996 RMK A01 T00151029  RH  072%=      5-min Rain = 0

Page generated in 0.0647 seconds.